AA2599 / N891NN 7700 Squawk Report (18th of October, 2019)

Aircraft B738 Reg No. N891NN Age 7 years old
Model 737 Jet engines 2 First flight 21-04-12
Registered 21-04-12 Rollout 11-04-12 Delivered 08-05-12
Construction No. 33315 Line No. 4022 Series 823
ADSHEX AC4A44 Airline name American Airlines Owner Wilmington Trust Company
Airfield based Dallas-Fort Worth~TX~N First tracked 2017-07-13 04:23:00

Flight history for N891NN

Route Flight No Date Playback
Charlotte Douglas (CLT) - Nashville Intl (BNA) - Charlotte Douglas (CLT) AA898 2019-11-21 20:12:00
Syracuse Hancock Intl (SYR) - Charlotte Douglas (CLT) AA530 2019-11-21 17:16:00
Charlotte Douglas (CLT) - Syracuse Hancock Intl (SYR) AA1976 2019-11-21 12:41:00
Reina Beatrix Intl (AUA) - Charlotte Douglas (CLT) AA1346 2019-11-21 03:22:00
Lambert St Louis Intl (STL) - Charlotte Douglas (CLT) AA858 2019-11-20 16:54:00
Dallas Fort Worth (DFW) - Lambert St Louis Intl (STL) AA2761 2019-11-20 02:05:00
Dallas Fort Worth (DFW) - Los Cabos Intl (SJD) - Dallas Fort Worth (DFW) AA1117 2019-11-20 00:08:00
Indianapolis Intl (IND) - Dallas Fort Worth (DFW) AA1296 2019-11-19 16:38:00
Dallas Fort Worth (DFW) - Indianapolis Intl (IND) AA2620 2019-11-19 13:08:00
Dallas Fort Worth (DFW) - Salt Lake City Intl (SLC) - Dallas Fort Worth (DFW) AA1006 2019-11-19 01:31:00
Dallas Fort Worth (DFW) - San Antonio Intl (SAT) - Dallas Fort Worth (DFW) AA2591 2019-11-18 17:43:00
Fort Lauderdale Hollywood Intl (FLL) - Dallas Fort Worth (DFW) AA2198 2019-11-18 13:09:00
Dallas Fort Worth (DFW) - San Diego Intl (SAN) - Dallas Fort Worth (DFW) AA1611 2019-11-17 19:27:00
Owen Roberts Intl (GCM) - Dallas Fort Worth (DFW) AA355 2019-11-17 13:02:00
Dallas Fort Worth (DFW) - Lambert St Louis Intl (STL) - Dallas Fort Worth (DFW) AA1021 2019-11-16 19:07:00
Portland Intl (PDX) - Dallas Fort Worth (DFW) AA2227 2019-11-16 13:11:00
Chicago Ohare Intl (ORD) - Portland Intl (PDX) AA2247 2019-11-16 06:37:00
Chicago Ohare Intl (ORD) - Logan International Airport (BOS) - Chicago Ohare Intl (ORD) AA834 2019-11-16 02:31:00
Chicago Ohare Intl (ORD) - Hartsfield Jackson Atlanta Intl (ATL) - Chicago Ohare Intl (ORD) AA1300 2019-11-15 19:18:00
Bradley Intl (BDL) - Chicago Ohare Intl (ORD) AA813 2019-11-15 13:16:00
Time Lat Lon Altitude Heading Speed Vertical Rate
2019-10-18 17:53:21 GMT 32.916389 -97.054626 725 181 148 -832
2019-10-18 17:53:18 GMT 32.918152 -97.054649 750 180 147 -704
2019-10-18 17:53:07 GMT 32.925514 -97.054626 900 180 145 -576
2019-10-18 17:52:54 GMT 32.933754 -97.054512 1,050 181 143 -512
2019-10-18 17:52:43 GMT 32.940830 -97.054512 1,175 180 146 -960
2019-10-18 17:52:36 GMT 32.948742 -97.054459 1,325 181 150 -1152
2019-10-18 17:52:22 GMT 32.958332 -97.054398 1,525 179 145 -704
2019-10-18 17:52:14 GMT 32.961452 -97.054398 1,575 181 144 -832
2019-10-18 17:52:10 GMT 32.963268 -97.054398 1,600 181 144 -640
2019-10-18 17:52:03 GMT 32.968807 -97.054398 1,700 181 147 -896
2019-10-18 17:51:59 GMT 32.970566 -97.054375 1,750 181 148 -832
2019-10-18 17:51:51 GMT 32.976059 -97.054268 1,825 181 149 -640
2019-10-18 17:51:47 GMT 32.979034 -97.054214 1,875 181 149 -896
2019-10-18 17:51:44 GMT 32.981735 -97.054214 1,950 179 147 -960
2019-10-18 17:51:41 GMT 32.983379 -97.054230 1,975 179 148 -960
2019-10-18 17:51:38 GMT 32.990982 -97.054268 2,075 181 151 -832
2019-10-18 17:51:30 GMT 32.990982 -97.054268 2,125 180 150 -640
2019-10-18 17:51:26 GMT 32.994366 -97.054291 2,200 179 150 -832
2019-10-18 17:51:20 GMT 32.998306 -97.054375 2,250 178 149 -896
2019-10-18 17:51:15 GMT 33.001694 -97.054428 2,325 179 151 -768
2019-10-18 17:51:07 GMT 33.006886 -97.054512 2,425 178 149 -768
2019-10-18 17:51:04 GMT 33.009430 -97.054649 2,475 174 147 -704
2019-10-18 17:51:00 GMT 33.011856 -97.054977 2,525 173 147 -640
2019-10-18 17:50:56 GMT 33.015079 -97.055748 2,575 161 147 -576
2019-10-18 17:50:52 GMT 33.017872 -97.056976 2,600 156 147 -512
2019-10-18 17:50:46 GMT 33.020992 -97.058662 2,650 155 149 -640
2019-10-18 17:50:41 GMT 33.024624 -97.060570 2,700 157 151 -576
2019-10-18 17:50:35 GMT 33.027790 -97.062187 2,750 156 153 -576
2019-10-18 17:50:29 GMT 33.032227 -97.064484 2,825 156 159 -768
2019-10-18 17:50:24 GMT 33.036678 -97.066734 2,875 156 161 -640
2019-10-18 17:50:18 GMT 33.039001 -97.067947 2,975 157 164 -704
2019-10-18 17:50:14 GMT 33.042297 -97.069649 3,000 157 164 -640
2019-10-18 17:50:08 GMT 33.046600 -97.071846 3,050 151 163 -128
2019-10-18 17:50:03 GMT 33.049850 -97.073547 3,050 151 163 -64
2019-10-18 17:49:57 GMT 33.053879 -97.075912 3,050 146 163 -128
2019-10-18 17:49:53 GMT 33.056885 -97.078392 3,050 136 163 128
2019-10-18 17:49:48 GMT 33.060699 -97.083382 3,050 128 165 -320
2019-10-18 17:49:41 GMT 33.062843 -97.086571 3,050 128 164 0
2019-10-18 17:49:33 GMT 33.066471 -97.092010 3,100 128 172 -704
2019-10-18 17:49:30 GMT 33.067520 -97.093597 3,125 128 168 -576
2019-10-18 17:49:24 GMT 33.070496 -97.097885 3,200 129 171 -768
2019-10-18 17:49:21 GMT 33.072758 -97.101204 3,200 129 172 -640
2019-10-18 17:49:12 GMT 33.076763 -97.107086 3,300 129 180 -576
2019-10-18 17:49:09 GMT 33.078392 -97.109444 3,325 129 182 -576
2019-10-18 17:49:01 GMT 33.082485 -97.115494 3,400 129 190 -512
2019-10-18 17:48:58 GMT 33.084442 -97.118355 3,450 128 192 -768
2019-10-18 17:48:51 GMT 33.088631 -97.124519 3,525 128 195 -1280
2019-10-18 17:48:48 GMT 33.090263 -97.126930 3,600 128 195 -1280
2019-10-18 17:48:43 GMT 33.093567 -97.131943 3,725 127 196 -1152
2019-10-18 17:48:40 GMT 33.094963 -97.134109 3,775 127 196 -1152
2019-10-18 17:48:37 GMT 33.096455 -97.136406 3,825 127 196 -1152
2019-10-18 17:48:29 GMT 33.100937 -97.143417 4,000 126 197 -1024
2019-10-18 17:48:26 GMT 33.102264 -97.145508 4,025 127 199 -768
2019-10-18 17:48:22 GMT 33.105019 -97.149803 4,075 126 201 -512
2019-10-18 17:48:18 GMT 33.107620 -97.153915 4,125 127 204 -640
2019-10-18 17:48:15 GMT 33.108559 -97.155350 4,150 127 206 -704
2019-10-18 17:48:11 GMT 33.110916 -97.158966 4,200 128 208 -704
2019-10-18 17:48:08 GMT 33.113113 -97.162315 4,225 128 211 -384
2019-10-18 17:48:05 GMT 33.114578 -97.164459 4,250 128 214 -384
2019-10-18 17:48:01 GMT 33.117416 -97.168633 4,300 128 216 -960
2019-10-18 17:47:57 GMT 33.119778 -97.172050 4,400 129 217 -1344
2019-10-18 17:47:54 GMT 33.122242 -97.175697 4,450 129 218 -1344
2019-10-18 17:47:49 GMT 33.124290 -97.178673 4,525 129 218 -1280
2019-10-18 17:47:46 GMT 33.128998 -97.185608 4,650 128 219 -1280
2019-10-18 17:47:43 GMT 33.128998 -97.185608 4,700 128 217 -1088
2019-10-18 17:47:36 GMT 33.133461 -97.192291 4,850 128 217 -1536
2019-10-18 17:47:31 GMT 33.136093 -97.196213 4,975 128 217 -1280
2019-10-18 17:47:25 GMT 33.142822 -97.206261 5,050 128 218 0
2019-10-18 17:47:20 GMT 33.142822 -97.206261 5,050 128 218 64
2019-10-18 17:47:15 GMT 33.146851 -97.212303 5,050 128 218 0
2019-10-18 17:47:12 GMT 33.149895 -97.216782 5,050 128 218 0
2019-10-18 17:47:04 GMT 33.153488 -97.222191 5,075 128 219 -704
2019-10-18 17:46:58 GMT 33.156830 -97.227211 5,125 128 221 -832
2019-10-18 17:46:53 GMT 33.160446 -97.232574 5,225 128 222 -1024
2019-10-18 17:46:50 GMT 33.164234 -97.238312 5,300 128 225 -704
2019-10-18 17:46:41 GMT 33.167816 -97.243668 5,375 128 228 -576
2019-10-18 17:46:38 GMT 33.169601 -97.246307 5,400 128 230 -960
2019-10-18 17:46:35 GMT 33.172520 -97.250694 5,475 128 231 -1216
2019-10-18 17:46:31 GMT 33.174683 -97.253891 5,550 128 232 -1024
2019-10-18 17:46:28 GMT 33.176708 -97.256920 5,575 128 234 -768
2019-10-18 17:46:24 GMT 33.179443 -97.260971 5,650 128 237 -896
2019-10-18 17:46:21 GMT 33.181877 -97.264709 5,700 128 240 -640
2019-10-18 17:46:17 GMT 33.184021 -97.267899 5,725 128 242 -384
2019-10-18 17:46:13 GMT 33.189926 -97.276848 5,725 128 245 -64
2019-10-18 17:46:10 GMT 33.189926 -97.276848 5,750 128 250 -256
2019-10-18 17:46:07 GMT 33.191650 -97.279449 5,750 128 251 -384
2019-10-18 17:46:03 GMT 33.194321 -97.283493 5,775 128 254 -448
2019-10-18 17:46:00 GMT 33.195797 -97.285675 5,825 128 264 -1344
2019-10-18 17:45:56 GMT 33.199310 -97.291023 5,850 128 257 -448
2019-10-18 17:45:50 GMT 33.203663 -97.297668 5,900 128 261 -576
2019-10-18 17:45:45 GMT 33.207504 -97.303490 5,950 128 263 -1024
2019-10-18 17:45:38 GMT 33.213486 -97.312523 6,125 128 264 -1344
2019-10-18 17:45:33 GMT 33.215927 -97.316124 6,200 128 264 -1216
2019-10-18 17:45:28 GMT 33.220238 -97.322556 6,275 128 265 -832
2019-10-18 17:45:23 GMT 33.224194 -97.328384 6,350 128 268 -896
2019-10-18 17:45:16 GMT 33.230255 -97.337936 6,400 126 271 -832
2019-10-18 17:45:13 GMT 33.232178 -97.341286 6,500 122 274 -1024
2019-10-18 17:45:07 GMT 33.235748 -97.348152 6,600 120 276 -1088
2019-10-18 17:45:02 GMT 33.239277 -97.355797 6,675 116 279 -960
2019-10-18 17:44:56 GMT 33.242020 -97.362656 6,775 112 282 -960
2019-10-18 17:44:50 GMT 33.245094 -97.371773 6,850 110 283 -768
2019-10-18 17:44:46 GMT 33.247375 -97.378944 6,925 110 284 -768
2019-10-18 17:44:40 GMT 33.249893 -97.386986 7,000 110 284 -768
2019-10-18 17:44:33 GMT 33.253288 -97.397614 7,100 110 286 -768
2019-10-18 17:44:29 GMT 33.254963 -97.403107 7,125 110 286 -768
2019-10-18 17:44:22 GMT 33.258591 -97.414673 7,250 110 287 -832
2019-10-18 17:44:17 GMT 33.260223 -97.420029 7,300 110 287 -832
2019-10-18 17:44:14 GMT 33.261574 -97.424347 7,325 110 288 -832
2019-10-18 17:44:11 GMT 33.263718 -97.431206 7,400 109 289 -768
2019-10-18 17:44:07 GMT 33.265320 -97.436478 7,450 110 289 -768
2019-10-18 17:44:02 GMT 33.267532 -97.443520 7,500 112 289 -768
2019-10-18 17:43:58 GMT 33.269394 -97.448616 7,550 115 288 -960
2019-10-18 17:43:55 GMT 33.271637 -97.454445 7,600 116 289 -1024
2019-10-18 17:43:51 GMT 33.276379 -97.465157 10,350 126 288 -1152
2019-10-18 17:43:47 GMT 33.276379 -97.465157 7,750 120 288 -1408
2019-10-18 17:43:43 GMT 33.279636 -97.471542 7,875 122 287 -1472
2019-10-18 17:43:40 GMT 33.281452 -97.474854 7,925 124 285 -1344
2019-10-18 17:43:35 GMT 33.284729 -97.480370 8,025 126 286 -1152
2019-10-18 17:43:29 GMT 33.289970 -97.488922 8,150 126 286 -1152
2019-10-18 17:43:25 GMT 33.292717 -97.493347 8,200 126 286 -1152
2019-10-18 17:43:21 GMT 33.295975 -97.498558 8,300 126 287 -1152
2019-10-18 17:43:18 GMT 33.299103 -97.503716 8,375 126 287 -1152
2019-10-18 17:43:14 GMT 33.301254 -97.507179 8,425 126 287 -1152
2019-10-18 17:43:10 GMT 33.304634 -97.512688 8,500 126 288 -1152
2019-10-18 17:43:07 GMT 33.306976 -97.516518 8,575 126 288 -1152
2019-10-18 17:43:02 GMT 33.310455 -97.522217 8,675 126 288 -1152
2019-10-18 17:42:59 GMT 33.313934 -97.527885 8,725 126 288 -1152
2019-10-18 17:42:56 GMT 33.315948 -97.531242 8,775 125 289 -1152
2019-10-18 17:42:52 GMT 33.319298 -97.536674 8,875 125 289 -1152
2019-10-18 17:42:49 GMT 33.320881 -97.539253 8,900 125 289 -1152
2019-10-18 17:42:45 GMT 33.324509 -97.545189 9,000 126 290 -1152
2019-10-18 17:42:41 GMT 33.329453 -97.553375 9,100 125 290 -1152
2019-10-18 17:42:34 GMT 33.333405 -97.559883 9,200 125 291 -1152
2019-10-18 17:42:29 GMT 33.340805 -97.571991 9,325 125 291 -1216
2019-10-18 17:42:25 GMT 33.340805 -97.571991 9,400 126 292 -1216
2019-10-18 17:42:22 GMT 33.342041 -97.574081 9,425 126 292 -1216
2019-10-18 17:42:17 GMT 33.346298 -97.580948 9,525 126 292 -1216
2019-10-18 17:42:12 GMT 33.350784 -97.588257 9,650 126 292 -1216
2019-10-18 17:42:07 GMT 33.354675 -97.594627 9,725 126 292 -1216
2019-10-18 17:42:02 GMT 33.360397 -97.603859 9,875 126 293 -1216
2019-10-18 17:41:55 GMT 33.363991 -97.609604 9,975 126 293 -1152
2019-10-18 17:41:48 GMT 33.369232 -97.618088 10,100 126 294 -1216
2019-10-18 17:41:44 GMT 33.373306 -97.624619 10,200 124 295 -1216
2019-10-18 17:41:38 GMT 33.377815 -97.632584 10,325 122 296 -1216
2019-10-18 17:41:34 GMT 33.380238 -97.637177 10,375 120 297 -1280
2019-10-18 17:41:31 GMT 33.382141 -97.641159 10,600 118 298 -1280
2019-10-18 17:41:27 GMT 33.385590 -97.648895 10,550 116 300 -1280
2019-10-18 17:41:23 GMT 33.392105 -97.666435 10,675 111 304 -1152
2019-10-18 17:41:16 GMT 33.392105 -97.666435 10,800 111 303 -1152
2019-10-18 17:41:13 GMT 33.396854 -97.681183 11,025 111 305 -1216
2019-10-18 17:41:06 GMT 33.396854 -97.681183 11,000 111 305 -1152
2019-10-18 17:41:03 GMT 33.398026 -97.684830 11,000 111 306 -1152
2019-10-18 17:40:55 GMT 33.402283 -97.698013 11,125 110 310 -1216
2019-10-18 17:40:52 GMT 33.403564 -97.702019 11,200 111 311 -1216
2019-10-18 17:40:44 GMT 33.409332 -97.719856 11,425 111 318 -1216
2019-10-18 17:40:35 GMT 33.412868 -97.730789 11,575 111 324 -1408
2019-10-18 17:40:31 GMT 33.414963 -97.737343 11,625 111 325 -1408
2019-10-18 17:40:20 GMT 33.420643 -97.754837 11,875 111 334 -1280
2019-10-18 17:40:10 GMT 33.426510 -97.773163 12,100 111 342 -1408
2019-10-18 17:40:02 GMT 33.431721 -97.789421 12,350 110 348 -1728
2019-10-18 17:39:59 GMT 33.432701 -97.792442 12,400 110 350 -1472
2019-10-18 17:39:51 GMT 33.437588 -97.807693 12,600 110 353 -1408
2019-10-18 17:39:48 GMT 33.439774 -97.814468 12,700 110 354 -1408
2019-10-18 17:39:40 GMT 33.443893 -97.827316 12,850 110 357 -1408
2019-10-18 17:39:36 GMT 33.446274 -97.834732 12,925 110 358 -1472
2019-10-18 17:39:29 GMT 33.454113 -97.859146 13,150 110 363 -1536
2019-10-18 17:39:25 GMT 33.454113 -97.859146 13,200 110 363 -1536
2019-10-18 17:39:15 GMT 33.458954 -97.874283 13,475 110 368 -1536
2019-10-18 17:39:09 GMT 33.462708 -97.885880 13,625 110 369 -1472
2019-10-18 17:39:05 GMT 33.465591 -97.894882 13,750 110 372 -1536
2019-10-18 17:39:00 GMT 33.468796 -97.904938 13,875 111 373 -1536
2019-10-18 17:38:56 GMT 33.470688 -97.910713 13,950 111 375 -1536
2019-10-18 17:38:53 GMT 33.472504 -97.916374 14,025 111 376 -1536
2019-10-18 17:38:49 GMT 33.475250 -97.924881 14,150 111 377 -1536
2019-10-18 17:38:45 GMT 33.477493 -97.931686 14,225 111 379 -1536
2019-10-18 17:38:41 GMT 33.479736 -97.938553 14,325 111 379 -1536
2019-10-18 17:38:37 GMT 33.482483 -97.946960 14,525 111 380 -1472
2019-10-18 17:38:34 GMT 33.484863 -97.954208 14,525 111 380 -1472
2019-10-18 17:38:31 GMT 33.486557 -97.959488 14,600 111 380 -1472
2019-10-18 17:38:27 GMT 33.489212 -97.967728 14,700 110 380 -1472
2019-10-18 17:38:20 GMT 33.493591 -97.981285 14,875 111 379 -1600
2019-10-18 17:38:16 GMT 33.496490 -97.990303 15,000 111 381 -1600
2019-10-18 17:38:08 GMT 33.500885 -98.003868 15,175 111 383 -1536
2019-10-18 17:38:05 GMT 33.503834 -98.013016 15,300 111 384 -1536
2019-10-18 17:38:02 GMT 33.507614 -98.024689 15,450 110 385 -1536
2019-10-18 17:37:58 GMT 33.507614 -98.024689 15,450 110 385 -1536
2019-10-18 17:37:51 GMT 33.511654 -98.037285 15,600 111 387 -1536
2019-10-18 17:37:48 GMT 33.514206 -98.045288 15,700 110 389 -1536
2019-10-18 17:37:42 GMT 33.518028 -98.057182 15,925 110 390 -1600
2019-10-18 17:37:36 GMT 33.521523 -98.068054 16,000 110 391 -1536
2019-10-18 17:37:28 GMT 33.526733 -98.084259 16,175 110 391 -1600
2019-10-18 17:37:16 GMT 33.534557 -98.108582 16,525 111 391 -1536
2019-10-18 17:37:09 GMT 33.538879 -98.121918 16,700 111 391 -1600
2019-10-18 17:37:05 GMT 33.542038 -98.131622 16,825 111 392 -1536
2019-10-18 17:36:56 GMT 33.547440 -98.148209 17,025 111 391 -1536
2019-10-18 17:36:53 GMT 33.549454 -98.154434 17,125 111 391 -1536
2019-10-18 17:36:48 GMT 33.552887 -98.164970 17,250 111 390 -1536
2019-10-18 17:36:43 GMT 33.557144 -98.178253 17,425 111 389 -1536
2019-10-18 17:36:32 GMT 33.564056 -98.199554 17,675 111 389 -1536
2019-10-18 17:36:26 GMT 33.568222 -98.212448 17,850 111 390 -1536
2019-10-18 17:36:21 GMT 33.571194 -98.221725 17,975 111 390 -1600
2019-10-18 17:36:16 GMT 33.573475 -98.228760 18,075 111 391 -1600
2019-10-18 17:36:09 GMT 33.578430 -98.244171 18,250 110 392 -1536
2019-10-18 17:36:06 GMT 33.580261 -98.249840 18,350 110 395 -1600
2019-10-18 17:35:59 GMT 33.585064 -98.264923 19,000 110 398 -1600
2019-10-18 17:35:56 GMT 33.587486 -98.272476 18,625 110 395 -1600
2019-10-18 17:35:48 GMT 33.592255 -98.287506 18,825 110 397 -1664
2019-10-18 17:35:43 GMT 33.599350 -98.309753 18,925 110 398 -1600
2019-10-18 17:35:37 GMT 33.599350 -98.309753 19,275 110 402 -1600
2019-10-18 17:35:32 GMT 33.602894 -98.320946 19,275 110 402 -1600
2019-10-18 17:35:26 GMT 33.606674 -98.332848 19,425 110 404 -1600
2019-10-18 17:35:19 GMT 33.611252 -98.347313 19,700 110 406 -1664
2019-10-18 17:35:16 GMT 33.613861 -98.355553 19,725 110 408 -1664
2019-10-18 17:35:12 GMT 33.616196 -98.362953 19,800 110 409 -1664
2019-10-18 17:35:04 GMT 33.621887 -98.380966 20,050 110 411 -1664
2019-10-18 17:35:00 GMT 33.624264 -98.388458 20,150 110 412 -1728
2019-10-18 17:34:54 GMT 33.628372 -98.401573 20,325 110 415 -1664
2019-10-18 17:34:50 GMT 33.630524 -98.408409 20,400 110 415 -1664
2019-10-18 17:34:40 GMT 33.637573 -98.430717 20,675 110 420 -1728
2019-10-18 17:34:32 GMT 33.643661 -98.449944 20,950 110 422 -1664
2019-10-18 17:34:29 GMT 33.645676 -98.456276 21,200 110 423 -1728
2019-10-18 17:34:19 GMT 33.652615 -98.478241 21,325 110 423 -1728
2019-10-18 17:34:15 GMT 33.654831 -98.485260 21,400 110 423 -1728
2019-10-18 17:34:08 GMT 33.659874 -98.501305 21,625 110 425 -1792
2019-10-18 17:33:57 GMT 33.667465 -98.525444 21,925 110 430 -1792
2019-10-18 17:33:48 GMT 33.677032 -98.555824 22,325 110 432 -1728
2019-10-18 17:33:35 GMT 33.682571 -98.573425 22,575 110 435 -1920
2019-10-18 17:33:30 GMT 33.686363 -98.585358 22,775 110 435 -2048
2019-10-18 17:33:24 GMT 33.691578 -98.601547 22,950 111 435 -1536
2019-10-18 17:33:14 GMT 33.697906 -98.621117 23,100 111 435 -896
2019-10-18 17:33:04 GMT 33.705688 -98.645172 23,250 111 434 -896
2019-10-18 17:32:53 GMT 33.713150 -98.668327 23,400 111 434 -896
2019-10-18 17:32:46 GMT 33.719276 -98.687210 23,525 111 435 -896
2019-10-18 17:32:41 GMT 33.722809 -98.697975 23,600 111 435 -896
2019-10-18 17:32:36 GMT 33.726540 -98.709473 23,675 111 436 -896
2019-10-18 17:32:31 GMT 33.729519 -98.718742 23,750 111 437 -832
2019-10-18 17:32:20 GMT 33.737106 -98.742310 23,925 110 439 -896
2019-10-18 17:32:12 GMT 33.746155 -98.770622 24,125 110 443 -1600
2019-10-18 17:32:00 GMT 33.752701 -98.791138 24,325 110 447 -1088
2019-10-18 17:31:56 GMT 33.755035 -98.798370 24,475 111 454 -2176
2019-10-18 17:31:51 GMT 33.759499 -98.812119 24,550 111 454 -2240
2019-10-18 17:31:47 GMT 33.762222 -98.820618 24,825 111 454 -2240
2019-10-18 17:31:39 GMT 33.768723 -98.840630 25,000 111 456 -2176
2019-10-18 17:31:35 GMT 33.770874 -98.847244 25,100 111 457 -2048
2019-10-18 17:31:25 GMT 33.778793 -98.871964 25,675 110 462 -2752
2019-10-18 17:31:14 GMT 33.787125 -98.898758 26,050 109 465 -2880
2019-10-18 17:31:03 GMT 33.794952 -98.924599 26,450 110 478 -1792
2019-10-18 17:30:53 GMT 33.803349 -98.952255 26,925 110 478 -1792
2019-10-18 17:30:39 GMT 33.813675 -98.985641 27,375 110 485 -2240
2019-10-18 17:30:30 GMT 33.820587 -99.007889 28,075 110 495 -2176
2019-10-18 17:30:19 GMT 33.829140 -99.035400 28,125 110 503 -2624
2019-10-18 17:30:09 GMT 33.837708 -99.062988 28,725 110 508 -2432
2019-10-18 17:29:58 GMT 33.846725 -99.091858 29,050 110 511 -2432
2019-10-18 17:29:55 GMT 33.849152 -99.099594 29,175 110 512 -2368
2019-10-18 17:29:47 GMT 33.856186 -99.122025 29,500 110 515 -2624
2019-10-18 17:29:44 GMT 33.858467 -99.129234 29,625 110 516 -2752
2019-10-18 17:29:34 GMT 33.866798 -99.155785 30,150 110 515 -3136
2019-10-18 17:29:26 GMT 33.874203 -99.179359 30,600 110 515 -3136
2019-10-18 17:29:23 GMT 33.876156 -99.185486 30,725 110 514 -3200
2019-10-18 17:29:14 GMT 33.883606 -99.209000 31,175 110 514 -3072
2019-10-18 17:29:11 GMT 33.886185 -99.217026 31,325 110 514 -3008
2019-10-18 17:29:01 GMT 33.894745 -99.243927 31,825 110 513 -2944
2019-10-18 17:28:53 GMT 33.901386 -99.264732 32,225 111 513 -2944
2019-10-18 17:28:50 GMT 33.904266 -99.273804 32,375 111 513 -2880
2019-10-18 17:28:42 GMT 33.910465 -99.293175 33,275 110 511 -2880
2019-10-18 17:28:39 GMT 33.913677 -99.303246 32,925 110 511 -2816
2019-10-18 17:28:34 GMT 33.917725 -99.316017 33,150 110 511 -2880
2019-10-18 17:28:31 GMT 33.920471 -99.324760 33,325 110 509 -2816
2019-10-18 17:28:26 GMT 33.924385 -99.337173 33,525 110 508 -2752
2019-10-18 17:28:20 GMT 33.929180 -99.352509 33,800 110 505 -2688
2019-10-18 17:28:14 GMT 33.934937 -99.371170 34,150 110 501 -2688
2019-10-18 17:28:09 GMT 33.937794 -99.380547 34,325 110 498 -2688
2019-10-18 17:28:05 GMT 33.941704 -99.393250 34,625 110 491 -2752
2019-10-18 17:27:58 GMT 33.946777 -99.409737 34,825 110 491 -2688
2019-10-18 17:27:53 GMT 33.951645 -99.425369 35,075 110 490 -2816
2019-10-18 17:27:48 GMT 33.954895 -99.435799 35,275 110 490 -2816
2019-10-18 17:27:42 GMT 33.959717 -99.451332 35,775 110 488 -2560
2019-10-18 17:27:35 GMT 33.965210 -99.468903 35,825 110 488 -2560
2019-10-18 17:27:31 GMT 33.968994 -99.481148 36,025 110 489 -2368
2019-10-18 17:27:25 GMT 33.972847 -99.493614 36,200 110 489 -2240
2019-10-18 17:27:22 GMT 33.976524 -99.505630 36,375 110 490 -2112
2019-10-18 17:27:19 GMT 33.977688 -99.509468 36,850 110 492 -1664
2019-10-18 17:27:14 GMT 33.981308 -99.521225 36,575 110 491 -1984
2019-10-18 17:27:07 GMT 33.986801 -99.539162 36,850 110 492 -1280
2019-10-18 17:27:04 GMT 33.989792 -99.548950 36,875 110 492 -1152
2019-10-18 17:26:55 GMT 33.996552 -99.571053 36,975 110 493 0
2019-10-18 17:26:51 GMT 33.999619 -99.581085 37,000 110 493 -64
2019-10-18 17:26:44 GMT 34.005707 -99.600929 37,000 110 492 64
2019-10-18 17:26:40 GMT 34.008499 -99.609901 37,000 110 492 64
2019-10-18 17:26:33 GMT 34.013901 -99.627388 37,000 110 492 0
2019-10-18 17:26:29 GMT 34.017334 -99.638710 37,000 110 493 0
2019-10-18 17:26:21 GMT 34.025402 -99.664932 37,000 110 493 0
2019-10-18 17:26:10 GMT 34.032013 -99.686508 37,000 110 493 0
2019-10-18 17:26:07 GMT 34.035320 -99.697327 37,000 110 493 0
2019-10-18 17:26:00 GMT 34.040771 -99.715050 37,000 110 493 0
2019-10-18 17:25:57 GMT 34.042465 -99.720711 37,000 110 493 0
2019-10-18 17:25:49 GMT 34.051193 -99.749275 37,000 110 491 0
2019-10-18 17:25:38 GMT 34.057663 -99.770599 37,000 110 491 0
2019-10-18 17:25:34 GMT 34.060829 -99.780869 37,000 110 491 0
2019-10-18 17:25:24 GMT 34.076752 -99.833321 37,000 110 491 0
2019-10-18 17:25:13 GMT 34.076752 -99.833321 37,000 110 491 0
2019-10-18 17:25:03 GMT 34.085175 -99.861069 37,000 109 491 0
2019-10-18 17:25:00 GMT 34.086548 -99.865669 37,000 110 491 0
2019-10-18 17:24:54 GMT 34.094860 -99.892899 37,000 109 491 64
2019-10-18 17:24:50 GMT 34.094860 -99.892899 37,000 109 491 64
2019-10-18 17:24:41 GMT 34.102478 -99.918076 37,000 109 491 0
2019-10-18 17:24:38 GMT 34.104168 -99.923744 37,000 109 491 0
2019-10-18 17:24:29 GMT 34.112000 -99.949463 37,000 109 491 0
2019-10-18 17:24:20 GMT 34.118134 -99.969810 37,000 109 492 0
2019-10-18 17:24:17 GMT 34.120468 -99.977547 37,000 109 492 0
2019-10-18 17:24:09 GMT 34.126282 -99.996819 37,000 109 492 0
2019-10-18 17:24:06 GMT 34.129868 -100.008659 37,000 109 492 0
2019-10-18 17:23:59 GMT 34.134987 -100.025658 37,000 109 492 0
2019-10-18 17:23:55 GMT 34.137634 -100.034439 37,000 109 492 0
2019-10-18 17:23:45 GMT 34.145554 -100.060677 37,000 109 492 -64
2019-10-18 17:23:36 GMT 34.152443 -100.083618 37,000 109 492 -64
2019-10-18 17:23:33 GMT 34.155144 -100.092659 37,000 109 492 -64
2019-10-18 17:23:24 GMT 34.165146 -100.125916 37,000 109 492 -64
2019-10-18 17:23:20 GMT 34.165146 -100.125916 37,000 109 492 0
2019-10-18 17:23:15 GMT 34.169357 -100.139877 37,000 109 493 0
2019-10-18 17:23:04 GMT 34.177780 -100.167961 37,000 109 492 0
2019-10-18 17:22:51 GMT 34.188217 -100.202545 37,000 110 492 0
2019-10-18 17:22:40 GMT 34.195267 -100.227203 37,000 107 493 0
2019-10-18 17:22:30 GMT 34.202362 -100.257362 37,000 104 495 0
2019-10-18 17:22:18 GMT 34.208084 -100.289482 37,000 99 495 0
2019-10-18 17:22:09 GMT 34.211193 -100.313477 37,000 98 496 0
2019-10-18 17:21:56 GMT 34.215683 -100.350357 37,000 98 495 0
2019-10-18 17:21:46 GMT 34.218735 -100.375214 37,000 98 494 0
2019-10-18 17:21:38 GMT 34.221497 -100.397552 37,000 98 494 0
2019-10-18 17:21:35 GMT 34.222549 -100.406013 37,000 98 494 0
2019-10-18 17:21:24 GMT 34.226120 -100.434601 37,000 98 493 0
2019-10-18 17:21:13 GMT 34.230057 -100.465820 37,000 98 493 0
2019-10-18 17:21:01 GMT 34.233948 -100.497322 37,000 98 493 0
2019-10-18 17:20:49 GMT 34.237637 -100.527763 37,000 98 492 0
2019-10-18 17:20:38 GMT 34.241089 -100.557137 37,000 98 492 0
2019-10-18 17:20:29 GMT 34.244156 -100.583473 37,000 98 491 64
2019-10-18 17:20:19 GMT 34.247456 -100.611191 37,000 98 492 0
2019-10-18 17:20:15 GMT 34.248505 -100.619858 37,000 98 492 0
2019-10-18 17:20:08 GMT 34.250996 -100.640778 37,000 98 492 -64
2019-10-18 17:20:04 GMT 34.252029 -100.649452 37,000 98 492 -64
2019-10-18 17:19:57 GMT 34.254501 -100.670135 37,000 98 492 -64
2019-10-18 17:19:54 GMT 34.255737 -100.680450 37,000 98 493 0
2019-10-18 17:19:46 GMT 34.258118 -100.700012 37,000 98 492 0
2019-10-18 17:19:43 GMT 34.259399 -100.710602 37,000 98 492 0
2019-10-18 17:19:35 GMT 34.261734 -100.729607 37,000 98 492 0
2019-10-18 17:19:31 GMT 34.263199 -100.741547 37,000 98 492 0
2019-10-18 17:19:24 GMT 34.265213 -100.758141 37,000 98 492 0
2019-10-18 17:19:19 GMT 34.266907 -100.772209 37,000 98 492 0
2019-10-18 17:19:15 GMT 34.268692 -100.786896 37,000 98 492 0
2019-10-18 17:19:07 GMT 34.270798 -100.804550 37,000 98 492 -64
2019-10-18 17:19:03 GMT 34.272224 -100.816788 37,000 98 494 -64
2019-10-18 17:18:57 GMT 34.274178 -100.833206 37,000 98 496 0
2019-10-18 17:18:51 GMT 34.275970 -100.848328 37,000 98 497 0
2019-10-18 17:18:47 GMT 34.277802 -100.863739 37,000 98 500 64
2019-10-18 17:18:42 GMT 34.279064 -100.874229 37,000 98 500 64
2019-10-18 17:18:35 GMT 34.281441 -100.894089 37,000 98 500 64
2019-10-18 17:18:23 GMT 34.285172 -100.925621 37,000 97 500 -64
2019-10-18 17:18:19 GMT 34.286774 -100.939468 37,000 97 500 -64
2019-10-18 17:18:12 GMT 34.288651 -100.956062 37,000 97 500 -64
2019-10-18 17:18:06 GMT 34.291077 -100.977585 37,000 97 499 0
2019-10-18 17:18:02 GMT 34.292240 -100.987534 37,000 97 499 0
2019-10-18 17:17:56 GMT 34.293869 -101.001633 37,000 97 498 64
2019-10-18 17:17:50 GMT 34.296066 -101.020912 37,000 97 498 64
2019-10-18 17:17:46 GMT 34.297028 -101.029434 37,000 97 498 0
2019-10-18 17:17:37 GMT 34.299923 -101.054817 37,000 97 498 -64
2019-10-18 17:17:28 GMT 34.302704 -101.079323 37,025 97 498 -64
2019-10-18 17:17:17 GMT 34.306595 -101.112892 37,000 98 496 128
2019-10-18 17:17:05 GMT 34.309982 -101.141426 37,000 98 497 0
2019-10-18 17:16:54 GMT 34.313828 -101.172981 37,000 98 498 64
2019-10-18 17:16:48 GMT 34.315887 -101.190079 37,000 97 500 0
2019-10-18 17:16:43 GMT 34.317169 -101.200783 37,000 98 499 -128
2019-10-18 17:16:32 GMT 34.320786 -101.231674 37,000 97 499 64
2019-10-18 17:16:22 GMT 34.324223 -101.261497 37,000 98 499 0
2019-10-18 17:16:11 GMT 34.331680 -101.325562 37,000 97 500 0
2019-10-18 17:15:58 GMT 34.331680 -101.325562 37,000 98 499 0
2019-10-18 17:15:48 GMT 34.335300 -101.356773 37,000 98 500 0
2019-10-18 17:15:36 GMT 34.339073 -101.388588 37,000 98 500 0
2019-10-18 17:15:24 GMT 34.342609 -101.419083 37,000 97 501 0
2019-10-18 17:15:13 GMT 34.346054 -101.449867 37,000 97 501 -64
2019-10-18 17:15:03 GMT 34.349533 -101.481216 37,000 97 501 0
2019-10-18 17:14:51 GMT 34.352921 -101.511765 37,000 97 502 0
2019-10-18 17:14:40 GMT 34.356354 -101.543159 37,000 97 502 0
2019-10-18 17:14:28 GMT 34.359928 -101.575699 37,000 97 502 0
2019-10-18 17:14:17 GMT 34.363449 -101.607445 37,000 97 503 -64
2019-10-18 17:14:06 GMT 34.366817 -101.638069 37,000 97 503 0
2019-10-18 17:13:55 GMT 34.370224 -101.668991 37,000 97 504 0
2019-10-18 17:13:44 GMT 34.373566 -101.699432 37,000 97 504 0
2019-10-18 17:13:32 GMT 34.377010 -101.730995 37,000 97 505 0
2019-10-18 17:13:22 GMT 34.380432 -101.762321 37,000 97 505 0
2019-10-18 17:13:09 GMT 34.384182 -101.795593 37,000 97 505 0
2019-10-18 17:12:59 GMT 34.387527 -101.825829 37,000 97 505 0
2019-10-18 17:12:48 GMT 34.390930 -101.856590 37,000 97 506 0
2019-10-18 17:12:37 GMT 34.394577 -101.888550 37,000 97 507 0
2019-10-18 17:12:26 GMT 34.398193 -101.920052 37,000 97 508 0
2019-10-18 17:12:21 GMT 34.399841 -101.934402 37,000 97 508 0
2019-10-18 17:12:15 GMT 34.401672 -101.950157 37,000 97 509 0
2019-10-18 17:12:09 GMT 34.403778 -101.968765 37,000 97 509 0
2019-10-18 17:12:03 GMT 34.405315 -101.982307 37,000 97 510 0
2019-10-18 17:11:52 GMT 34.408760 -102.013092 37,000 97 511 0
2019-10-18 17:11:46 GMT 34.410828 -102.032043 37,000 97 511 0
2019-10-18 17:11:41 GMT 34.412205 -102.044792 37,000 97 511 0
2019-10-18 17:11:30 GMT 34.415558 -102.076263 37,000 97 511 0
2019-10-18 17:11:23 GMT 34.417931 -102.098923 37,000 97 511 0
2019-10-18 17:11:19 GMT 34.418793 -102.106819 37,000 97 511 0
2019-10-18 17:11:12 GMT 34.420853 -102.126663 37,000 97 511 0
2019-10-18 17:11:08 GMT 34.422119 -102.138580 37,000 97 511 0
2019-10-18 17:11:03 GMT 34.423378 -102.150703 37,000 97 511 0
2019-10-18 17:10:57 GMT 34.425385 -102.169716 37,000 97 511 0
2019-10-18 17:10:50 GMT 34.427475 -102.189789 37,000 97 511 0
2019-10-18 17:10:46 GMT 34.428680 -102.201157 37,000 97 511 0
2019-10-18 17:10:37 GMT 34.431061 -102.224083 37,000 97 511 0
2019-10-18 17:10:34 GMT 34.432114 -102.234009 37,000 97 510 0
2019-10-18 17:10:24 GMT 34.435089 -102.262871 37,000 97 511 0
2019-10-18 17:10:17 GMT 34.437485 -102.285522 37,000 97 510 0
2019-10-18 17:10:12 GMT 34.438522 -102.295105 37,000 97 510 0
2019-10-18 17:10:07 GMT 34.440231 -102.311272 37,000 97 510 64
2019-10-18 17:10:02 GMT 34.441719 -102.325111 37,000 97 510 0
2019-10-18 17:09:51 GMT 34.445068 -102.356819 37,000 97 511 0
2019-10-18 17:09:39 GMT 34.448517 -102.389374 37,000 97 511 0
2019-10-18 17:09:29 GMT 34.451820 -102.420845 37,000 97 511 64
2019-10-18 17:09:17 GMT 34.454987 -102.451797 37,000 97 512 0
2019-10-18 17:09:06 GMT 34.458344 -102.484169 37,000 97 512 -64
2019-10-18 17:08:59 GMT 34.460388 -102.503700 37,000 97 511 -64
2019-10-18 17:08:55 GMT 34.461597 -102.515312 37,000 97 511 0
2019-10-18 17:08:44 GMT 34.464809 -102.545929 37,000 97 511 0
2019-10-18 17:08:33 GMT 34.468117 -102.577972 37,000 97 510 0
2019-10-18 17:08:22 GMT 34.471298 -102.609169 37,000 96 511 0
2019-10-18 17:08:10 GMT 34.474594 -102.641228 37,000 97 512 0
2019-10-18 17:08:00 GMT 34.477798 -102.672440 37,000 97 511 -64
2019-10-18 17:07:48 GMT 34.481140 -102.704788 37,000 97 511 0
2019-10-18 17:07:37 GMT 34.484409 -102.736526 37,000 97 510 0
2019-10-18 17:07:25 GMT 34.487759 -102.768860 37,000 97 510 0
2019-10-18 17:07:14 GMT 34.491211 -102.802322 37,000 97 510 0
2019-10-18 17:07:03 GMT 34.494278 -102.832085 37,000 97 510 0
2019-10-18 17:06:51 GMT 34.497581 -102.864365 37,000 96 510 0
2019-10-18 17:06:39 GMT 34.501259 -102.900124 37,000 97 511 -64
2019-10-18 17:06:28 GMT 34.504486 -102.931862 37,000 96 510 0
2019-10-18 17:06:19 GMT 34.507095 -102.957642 37,000 96 510 64
2019-10-18 17:06:07 GMT 34.510197 -102.989960 37,000 96 510 64
2019-10-18 17:05:57 GMT 34.513092 -103.020035 37,000 96 511 -64
2019-10-18 17:05:46 GMT 34.516155 -103.051247 37,000 96 510 0
2019-10-18 17:05:34 GMT 34.519638 -103.086121 37,000 96 510 0
2019-10-18 17:05:23 GMT 34.522629 -103.116241 37,000 96 510 0
2019-10-18 17:05:11 GMT 34.525772 -103.148003 37,000 96 511 0
2019-10-18 17:05:01 GMT 34.529022 -103.180962 37,000 96 511 64
2019-10-18 17:04:48 GMT 34.532272 -103.213638 37,000 96 512 0
2019-10-18 17:04:37 GMT 34.535336 -103.244934 37,000 96 512 0
2019-10-18 17:04:26 GMT 34.538456 -103.277374 37,000 96 512 0
2019-10-18 17:04:16 GMT 34.541294 -103.307014 37,000 96 512 0
2019-10-18 17:04:04 GMT 34.544785 -103.342957 37,000 96 513 -64
2019-10-18 17:03:53 GMT 34.547813 -103.374313 37,000 96 514 0
2019-10-18 17:03:42 GMT 34.550793 -103.405495 37,000 96 515 0
2019-10-18 17:03:32 GMT 34.553772 -103.435593 37,000 96 515 0
2019-10-18 17:03:21 GMT 34.556705 -103.465630 37,000 96 515 0
2019-10-18 17:03:10 GMT 34.559738 -103.496590 37,000 96 515 0
2019-10-18 17:02:59 GMT 34.562801 -103.528114 37,000 96 515 0
2019-10-18 17:02:47 GMT 34.565876 -103.559937 37,000 96 515 -64
2019-10-18 17:02:37 GMT 34.569077 -103.593117 37,000 96 514 0
2019-10-18 17:02:24 GMT 34.572464 -103.628593 37,000 96 514 0
2019-10-18 17:02:14 GMT 34.575047 -103.656059 37,000 96 514 64
2019-10-18 17:02:03 GMT 34.577957 -103.687561 37,000 96 515 64
2019-10-18 17:01:52 GMT 34.580978 -103.721085 37,000 96 516 0
2019-10-18 17:01:40 GMT 34.583889 -103.753220 37,000 96 516 64
2019-10-18 17:01:29 GMT 34.586964 -103.786530 37,000 96 516 0
2019-10-18 17:01:16 GMT 34.590176 -103.821831 37,000 96 515 0
2019-10-18 17:01:06 GMT 34.593060 -103.852783 37,000 96 515 0
2019-10-18 17:00:57 GMT 34.595108 -103.875107 37,000 96 515 0
2019-10-18 17:00:54 GMT 34.595901 -103.883972 37,000 96 515 64
2019-10-18 17:00:47 GMT 34.597855 -103.905144 37,000 96 515 0
2019-10-18 17:00:37 GMT 34.600525 -103.933800 37,000 96 514 -64
2019-10-18 17:00:32 GMT 34.602127 -103.950394 37,000 96 514 0
2019-10-18 17:00:26 GMT 34.603592 -103.966148 37,000 96 514 0
2019-10-18 17:00:19 GMT 34.605118 -103.982964 37,000 96 513 64
2019-10-18 17:00:16 GMT 34.606293 -103.995575 37,000 96 513 0
2019-10-18 17:00:09 GMT 34.607941 -104.013847 37,000 96 513 0
2019-10-18 17:00:03 GMT 34.609451 -104.030380 37,000 96 513 0
2019-10-18 16:59:56 GMT 34.611263 -104.050026 37,000 96 511 0
2019-10-18 16:59:50 GMT 34.612793 -104.067436 37,000 96 511 0
2019-10-18 16:59:46 GMT 34.613663 -104.077133 37,000 96 511 64
2019-10-18 16:59:42 GMT 34.614853 -104.090187 37,000 96 510 64
2019-10-18 16:59:36 GMT 34.616665 -104.110397 37,000 96 510 64
2019-10-18 16:59:24 GMT 34.619362 -104.140839 37,000 96 511 -64
2019-10-18 16:59:12 GMT 34.622482 -104.175858 37,000 96 511 -64
2019-10-18 16:59:01 GMT 34.625648 -104.211159 37,000 96 510 0
2019-10-18 16:58:49 GMT 34.628395 -104.242172 37,000 96 509 -64
2019-10-18 16:58:37 GMT 34.631287 -104.274490 37,000 96 508 0
2019-10-18 16:58:27 GMT 34.634125 -104.306557 37,000 96 508 0
2019-10-18 16:58:15 GMT 34.636868 -104.337669 37,000 96 507 0
2019-10-18 16:58:03 GMT 34.639709 -104.369896 37,000 96 506 64
2019-10-18 16:57:51 GMT 34.642914 -104.406044 37,000 96 506 64
2019-10-18 16:57:42 GMT 34.645107 -104.431168 37,000 96 506 0
2019-10-18 16:57:29 GMT 34.648273 -104.467339 37,000 96 507 0
2019-10-18 16:57:19 GMT 34.650692 -104.494804 37,000 96 507 0
2019-10-18 16:57:08 GMT 34.653484 -104.526787 37,000 96 507 -64
2019-10-18 16:56:57 GMT 34.656139 -104.557053 37,000 95 507 0
2019-10-18 16:56:46 GMT 34.658981 -104.589844 37,000 95 507 64
2019-10-18 16:56:35 GMT 34.661591 -104.619606 37,000 95 508 -64
2019-10-18 16:56:24 GMT 34.664192 -104.650787 37,000 95 508 -128
2019-10-18 16:56:13 GMT 34.666901 -104.683060 37,025 95 507 0
2019-10-18 16:56:03 GMT 34.669464 -104.712822 37,000 95 508 128
2019-10-18 16:55:52 GMT 34.672199 -104.745140 36,975 95 509 64
2019-10-18 16:55:41 GMT 34.674667 -104.774956 36,975 95 510 64
2019-10-18 16:55:30 GMT 34.677200 -104.805756 37,000 95 511 -64
2019-10-18 16:55:18 GMT 34.679882 -104.838295 37,000 95 511 -64
2019-10-18 16:55:07 GMT 34.682419 -104.869041 37,000 95 510 0
2019-10-18 16:54:56 GMT 34.685047 -104.900322 37,000 95 510 -64
2019-10-18 16:54:50 GMT 34.686584 -104.918571 37,025 95 510 -64
2019-10-18 16:54:45 GMT 34.687702 -104.932480 37,025 95 509 64
2019-10-18 16:54:40 GMT 34.689011 -104.948692 37,000 95 510 64
2019-10-18 16:54:34 GMT 34.690216 -104.963493 37,000 95 510 64
2019-10-18 16:54:31 GMT 34.691254 -104.976608 37,000 95 511 64
2019-10-18 16:54:24 GMT 34.692627 -104.993141 37,000 95 511 64
2019-10-18 16:54:19 GMT 34.693661 -105.005669 36,975 95 512 64
2019-10-18 16:54:12 GMT 34.695419 -105.027107 37,000 95 512 0
2019-10-18 16:54:08 GMT 34.696220 -105.036850 37,000 95 512 -64
2019-10-18 16:54:02 GMT 34.697891 -105.056595 37,000 95 512 -128
2019-10-18 16:53:58 GMT 34.698875 -105.068031 37,000 96 512 -128
2019-10-18 16:53:49 GMT 34.701061 -105.093437 37,000 95 512 0
2019-10-18 16:53:45 GMT 34.702011 -105.104294 37,000 96 512 0
2019-10-18 16:53:40 GMT 34.703384 -105.119987 37,000 95 512 64
2019-10-18 16:53:33 GMT 34.704849 -105.137199 37,000 95 513 0
2019-10-18 16:53:28 GMT 34.706268 -105.153511 37,000 95 514 0
2019-10-18 16:53:23 GMT 34.707581 -105.169312 37,000 95 515 0
2019-10-18 16:53:17 GMT 34.708790 -105.183968 37,000 95 515 0
2019-10-18 16:53:13 GMT 34.709839 -105.196335 37,000 95 515 0
2019-10-18 16:53:07 GMT 34.711395 -105.214973 37,000 95 515 64
2019-10-18 16:53:01 GMT 34.712814 -105.232262 37,000 95 516 0
2019-10-18 16:52:56 GMT 34.714005 -105.246964 37,000 95 516 64
2019-10-18 16:52:49 GMT 34.716110 -105.273796 37,000 95 517 -64
2019-10-18 16:52:43 GMT 34.716705 -105.281296 37,000 95 517 -64
2019-10-18 16:52:39 GMT 34.717758 -105.293976 37,000 95 516 -128
2019-10-18 16:52:36 GMT 34.718426 -105.302635 37,025 95 516 -128
2019-10-18 16:52:33 GMT 34.719177 -105.311295 37,025 95 516 -64
2019-10-18 16:52:29 GMT 34.720287 -105.324783 37,025 95 515 64
2019-10-18 16:52:23 GMT 34.721500 -105.340057 37,000 95 515 64
2019-10-18 16:52:18 GMT 34.722897 -105.356773 37,000 95 515 0
2019-10-18 16:52:08 GMT 34.725174 -105.384613 37,025 95 514 -64
2019-10-18 16:52:04 GMT 34.725998 -105.394707 37,000 95 514 -64
2019-10-18 16:51:58 GMT 34.727280 -105.410736 37,025 95 514 0
2019-10-18 16:51:55 GMT 34.728249 -105.422806 37,025 95 514 0
2019-10-18 16:51:49 GMT 34.729645 -105.440025 37,000 95 514 64
2019-10-18 16:51:44 GMT 34.730667 -105.452660 37,000 95 514 64
2019-10-18 16:51:37 GMT 34.732204 -105.472466 37,000 95 515 0
2019-10-18 16:51:34 GMT 34.732952 -105.481972 37,000 95 515 0
2019-10-18 16:51:24 GMT 34.735245 -105.511292 37,000 95 515 64
2019-10-18 16:51:21 GMT 34.735703 -105.517067 37,000 95 515 64
2019-10-18 16:51:12 GMT 34.737839 -105.544106 36,975 95 516 64
2019-10-18 16:51:02 GMT 34.740120 -105.573006 37,000 95 517 0
2019-10-18 16:50:51 GMT 34.742634 -105.606537 37,000 95 518 0
2019-10-18 16:50:41 GMT 34.744869 -105.636292 37,000 95 517 -64
2019-10-18 16:50:30 GMT 34.747288 -105.667824 37,025 95 517 -64
2019-10-18 16:50:17 GMT 34.750214 -105.706749 37,000 95 516 64
2019-10-18 16:50:07 GMT 34.752270 -105.734428 37,000 95 516 -64
2019-10-18 16:49:58 GMT 34.754333 -105.761230 37,000 95 516 -128
2019-10-18 16:49:55 GMT 34.754654 -105.765549 37,000 95 516 -128
2019-10-18 16:49:45 GMT 34.756969 -105.796051 37,025 95 515 0
2019-10-18 16:49:35 GMT 34.759254 -105.826836 37,000 95 514 0
2019-10-18 16:49:23 GMT 34.761475 -105.857307 37,000 95 513 64
2019-10-18 16:49:12 GMT 34.763863 -105.889435 37,000 95 513 0
2019-10-18 16:49:03 GMT 34.766144 -105.919533 37,000 95 513 -64
2019-10-18 16:48:56 GMT 34.767334 -105.934998 37,000 95 513 0
2019-10-18 16:48:52 GMT 34.768433 -105.949959 37,000 95 514 64
2019-10-18 16:48:46 GMT 34.769634 -105.965134 37,000 95 514 64
2019-10-18 16:48:41 GMT 34.770721 -105.979500 37,000 95 514 64
2019-10-18 16:48:36 GMT 34.772049 -105.996712 37,000 95 514 64
2019-10-18 16:48:30 GMT 34.773079 -106.010513 37,000 95 514 0
2019-10-18 16:48:24 GMT 34.774334 -106.026588 37,000 95 514 0
2019-10-18 16:48:20 GMT 34.775436 -106.041550 37,000 95 514 0
2019-10-18 16:48:14 GMT 34.776535 -106.056183 37,000 95 514 -64
2019-10-18 16:48:09 GMT 34.777733 -106.072601 37,000 95 513 0
2019-10-18 16:48:03 GMT 34.778824 -106.087852 37,000 95 514 64
2019-10-18 16:47:58 GMT 34.780106 -106.105675 37,000 95 514 0
2019-10-18 16:47:53 GMT 34.780945 -106.117172 37,000 95 515 -64
2019-10-18 16:47:48 GMT 34.782204 -106.134506 37,000 95 516 -192
2019-10-18 16:47:43 GMT 34.783180 -106.147446 37,000 95 516 -128
2019-10-18 16:47:36 GMT 34.784672 -106.167641 37,025 95 516 -128
2019-10-18 16:47:32 GMT 34.785461 -106.178040 37,025 95 516 -64
2019-10-18 16:47:27 GMT 34.786579 -106.193047 36,975 95 514 320
2019-10-18 16:47:24 GMT 34.787659 -106.208305 37,000 95 514 256
2019-10-18 16:47:15 GMT 34.788940 -106.226135 36,975 94 515 320
2019-10-18 16:47:12 GMT 34.789650 -106.235962 36,975 94 515 320
2019-10-18 16:47:03 GMT 34.791653 -106.264519 36,975 94 516 64
2019-10-18 16:46:53 GMT 34.793564 -106.291924 37,000 94 516 -192
2019-10-18 16:46:50 GMT 34.793976 -106.297432 37,000 94 516 -256
2019-10-18 16:46:43 GMT 34.795441 -106.318283 37,025 94 517 -256
2019-10-18 16:46:40 GMT 34.796127 -106.328430 37,025 94 517 -192
2019-10-18 16:46:32 GMT 34.797913 -106.353600 37,025 94 517 -128
2019-10-18 16:46:28 GMT 34.798542 -106.362305 37,025 94 517 -64
2019-10-18 16:46:19 GMT 34.800613 -106.391266 37,025 94 517 0
2019-10-18 16:46:10 GMT 34.803013 -106.424789 37,000 94 516 64
2019-10-18 16:45:59 GMT 34.804779 -106.448776 37,000 94 517 64
2019-10-18 16:45:56 GMT 34.805283 -106.456062 37,000 94 517 64
2019-10-18 16:45:47 GMT 34.807014 -106.480347 37,000 94 517 0
2019-10-18 16:45:44 GMT 34.807846 -106.491936 37,000 94 517 0
2019-10-18 16:45:35 GMT 34.809483 -106.515427 37,000 94 517 0
2019-10-18 16:45:32 GMT 34.810181 -106.525230 37,000 94 517 -64
2019-10-18 16:45:27 GMT 34.811344 -106.541748 37,000 94 517 0
2019-10-18 16:45:24 GMT 34.811874 -106.549332 37,000 94 517 0
2019-10-18 16:45:20 GMT 34.812508 -106.557999 37,000 94 518 0
2019-10-18 16:45:15 GMT 34.813721 -106.575394 37,000 94 517 0
2019-10-18 16:45:09 GMT 34.814835 -106.590729 37,000 94 518 0
2019-10-18 16:45:04 GMT 34.815948 -106.606674 37,000 94 518 64
2019-10-18 16:44:58 GMT 34.817162 -106.623802 37,000 94 518 128
2019-10-18 16:44:53 GMT 34.818142 -106.638046 36,975 94 518 128
2019-10-18 16:44:50 GMT 34.818649 -106.645020 36,975 94 519 64
2019-10-18 16:44:47 GMT 34.819538 -106.658363 36,975 94 519 64
2019-10-18 16:44:44 GMT 34.820755 -106.675507 36,975 94 519 0
2019-10-18 16:44:40 GMT 34.820755 -106.675507 36,975 94 519 0
2019-10-18 16:44:34 GMT 34.822037 -106.694115 37,000 94 519 -128
2019-10-18 16:44:31 GMT 34.822517 -106.701103 37,000 94 519 -128
2019-10-18 16:44:23 GMT 34.824142 -106.724388 37,000 94 519 -64
2019-10-18 16:44:18 GMT 34.825123 -106.738297 37,000 94 518 -64
2019-10-18 16:44:10 GMT 34.827034 -106.765305 37,025 94 518 0
2019-10-18 16:44:02 GMT 34.828613 -106.788483 37,000 94 517 64
2019-10-18 16:43:59 GMT 34.829128 -106.795753 37,000 94 517 64
2019-10-18 16:43:56 GMT 34.829594 -106.802956 37,000 94 517 0
2019-10-18 16:43:51 GMT 34.830711 -106.818924 37,000 94 517 0
2019-10-18 16:43:48 GMT 34.831421 -106.829933 37,000 94 517 0
2019-10-18 16:43:45 GMT 34.831825 -106.835747 37,000 94 517 0
2019-10-18 16:43:40 GMT 34.832794 -106.851067 37,000 94 517 0
2019-10-18 16:43:35 GMT 34.833828 -106.866135 37,000 94 517 0
2019-10-18 16:43:30 GMT 34.834488 -106.876572 37,000 94 517 0
2019-10-18 16:43:24 GMT 34.835922 -106.898003 37,000 94 517 0
2019-10-18 16:43:19 GMT 34.836761 -106.911049 37,000 94 517 0
2019-10-18 16:43:15 GMT 34.837646 -106.924095 37,000 94 517 64
2019-10-18 16:43:10 GMT 34.838425 -106.936264 37,000 94 517 0
2019-10-18 16:43:07 GMT 34.839111 -106.946693 37,000 94 516 -64
2019-10-18 16:43:02 GMT 34.839973 -106.959969 37,000 94 516 0
2019-10-18 16:42:59 GMT 34.840534 -106.968384 37,025 94 515 0
2019-10-18 16:42:56 GMT 34.842022 -106.991447 37,000 94 515 0
2019-10-18 16:42:51 GMT 34.842022 -106.991447 37,000 94 514 0
2019-10-18 16:42:43 GMT 34.843735 -107.017937 37,000 94 513 0
2019-10-18 16:42:40 GMT 34.844025 -107.022575 37,000 94 513 0
2019-10-18 16:42:30 GMT 34.845978 -107.052727 37,000 94 513 64
2019-10-18 16:42:21 GMT 34.847580 -107.078300 37,000 94 513 64
2019-10-18 16:42:17 GMT 34.848309 -107.089523 37,000 94 513 64
2019-10-18 16:42:10 GMT 34.849609 -107.109604 37,000 94 512 -64
2019-10-18 16:42:07 GMT 34.850281 -107.119949 37,000 94 512 -64
2019-10-18 16:42:00 GMT 34.851562 -107.140015 37,000 94 512 -64
2019-10-18 16:41:56 GMT 34.852158 -107.149490 37,000 94 512 -64
2019-10-18 16:41:49 GMT 34.853439 -107.170120 37,025 94 511 -64
2019-10-18 16:41:43 GMT 34.854591 -107.188171 37,000 94 511 0
2019-10-18 16:41:37 GMT 34.855453 -107.201897 37,000 94 511 0
2019-10-18 16:41:33 GMT 34.856277 -107.215630 37,000 94 511 0
2019-10-18 16:41:27 GMT 34.857330 -107.232277 37,000 94 512 -64
2019-10-18 16:41:24 GMT 34.857803 -107.239723 37,000 94 512 -64
2019-10-18 16:41:17 GMT 34.859665 -107.269302 37,000 94 513 -128
2019-10-18 16:41:14 GMT 34.859665 -107.269302 37,000 94 513 -64
2019-10-18 16:41:06 GMT 34.861248 -107.294884 37,000 94 513 -64
2019-10-18 16:40:56 GMT 34.863064 -107.323380 37,000 94 514 0
2019-10-18 16:40:53 GMT 34.863625 -107.332306 37,000 94 514 0
2019-10-18 16:40:43 GMT 34.865299 -107.359718 37,000 94 515 64
2019-10-18 16:40:32 GMT 34.867161 -107.389984 37,000 94 514 128
2019-10-18 16:40:23 GMT 34.868866 -107.419106 36,975 94 514 64
2019-10-18 16:40:10 GMT 34.870930 -107.453041 37,000 94 513 0
2019-10-18 16:40:02 GMT 34.872421 -107.478043 37,000 94 512 0
2019-10-18 16:39:59 GMT 34.872887 -107.485252 37,000 94 512 0
2019-10-18 16:39:52 GMT 34.874359 -107.509010 37,000 94 511 -64
2019-10-18 16:39:49 GMT 34.874748 -107.515350 37,000 94 511 -64
2019-10-18 16:39:39 GMT 34.876511 -107.544495 37,000 94 509 64
2019-10-18 16:39:30 GMT 34.877975 -107.568710 37,000 94 508 128
2019-10-18 16:39:27 GMT 34.878426 -107.576118 37,000 94 508 128
2019-10-18 16:39:19 GMT 34.879761 -107.598083 36,975 94 508 64
2019-10-18 16:39:16 GMT 34.880428 -107.608849 36,975 94 508 0
2019-10-18 16:39:09 GMT 34.882477 -107.640205 37,000 94 507 0
2019-10-18 16:39:05 GMT 34.882477 -107.640205 37,000 94 508 -64
2019-10-18 16:38:59 GMT 34.883595 -107.656975 37,000 94 508 0
2019-10-18 16:38:54 GMT 34.884613 -107.671509 37,000 94 507 0
2019-10-18 16:38:49 GMT 34.885643 -107.686562 37,000 94 507 0
2019-10-18 16:38:46 GMT 34.886765 -107.703346 37,000 94 507 0
2019-10-18 16:38:38 GMT 34.887589 -107.715569 37,000 94 507 0
2019-10-18 16:38:35 GMT 34.888390 -107.727470 37,000 94 507 0
2019-10-18 16:38:32 GMT 34.888916 -107.735466 37,000 94 508 -64
2019-10-18 16:38:27 GMT 34.889645 -107.747093 37,000 94 508 -64
2019-10-18 16:38:21 GMT 34.890839 -107.767021 37,000 94 508 -64
2019-10-18 16:38:17 GMT 34.891415 -107.776733 37,000 94 507 0
2019-10-18 16:38:12 GMT 34.892303 -107.791237 37,000 94 507 0
2019-10-18 16:38:09 GMT 34.892899 -107.800598 37,000 94 507 0
2019-10-18 16:38:06 GMT 34.893311 -107.807716 37,000 94 508 0
2019-10-18 16:38:03 GMT 34.893929 -107.818565 37,000 94 508 -64
2019-10-18 16:38:00 GMT 34.894394 -107.826233 37,000 94 508 -64
2019-10-18 16:37:57 GMT 34.894775 -107.832214 37,000 94 508 -64
2019-10-18 16:37:54 GMT 34.895325 -107.841576 37,000 94 508 -64
2019-10-18 16:37:51 GMT 34.895966 -107.852112 37,000 94 508 0
2019-10-18 16:37:48 GMT 34.896534 -107.861824 37,000 94 508 0
2019-10-18 16:37:39 GMT 34.897934 -107.885689 37,000 94 508 64
2019-10-18 16:37:34 GMT 34.898815 -107.900787 37,000 94 508 0
2019-10-18 16:37:28 GMT 34.899796 -107.917618 37,000 94 508 0
2019-10-18 16:37:23 GMT 34.900444 -107.928719 37,000 94 508 0
2019-10-18 16:37:19 GMT 34.901192 -107.941528 37,000 94 508 0
2019-10-18 16:37:14 GMT 34.902122 -107.957497 37,000 93 508 0
2019-10-18 16:37:08 GMT 34.902969 -107.972061 37,000 94 508 0
2019-10-18 16:37:03 GMT 34.903843 -107.987427 37,000 94 508 -64
2019-10-18 16:36:55 GMT 34.905613 -108.018494 37,025 94 508 -64
2019-10-18 16:36:46 GMT 34.906590 -108.034973 37,025 94 507 0
2019-10-18 16:36:43 GMT 34.906998 -108.042351 37,025 94 507 0
2019-10-18 16:36:40 GMT 34.907520 -108.050880 37,025 94 507 0
2019-10-18 16:36:36 GMT 34.908463 -108.067406 37,000 93 507 128
2019-10-18 16:36:32 GMT 34.908920 -108.075645 37,000 93 508 128
2019-10-18 16:36:25 GMT 34.910202 -108.098129 36,975 94 509 64
2019-10-18 16:36:21 GMT 34.910706 -108.106705 37,000 94 509 64
2019-10-18 16:36:18 GMT 34.911152 -108.114677 37,000 94 509 64
2019-10-18 16:36:13 GMT 34.912178 -108.131790 37,000 94 509 0
2019-10-18 16:36:10 GMT 34.912445 -108.136971 37,000 94 509 -64
2019-10-18 16:36:07 GMT 34.912922 -108.144669 37,000 94 509 -128
2019-10-18 16:36:00 GMT 34.914093 -108.165222 37,000 94 509 -64
2019-10-18 16:35:56 GMT 34.914829 -108.177795 37,000 93 509 0
2019-10-18 16:35:49 GMT 34.916016 -108.198631 37,000 93 508 0
2019-10-18 16:35:46 GMT 34.916458 -108.207153 37,000 93 508 0
2019-10-18 16:35:39 GMT 34.917709 -108.229683 37,000 93 508 64
2019-10-18 16:35:31 GMT 34.918972 -108.251900 37,000 93 508 0
2019-10-18 16:35:27 GMT 34.919392 -108.259560 37,000 93 508 0
2019-10-18 16:35:22 GMT 34.920231 -108.274612 37,000 93 507 0
2019-10-18 16:35:17 GMT 34.920959 -108.287415 37,000 93 507 0
2019-10-18 16:35:12 GMT 34.921814 -108.302818 37,000 93 507 0
2019-10-18 16:35:09 GMT 34.922333 -108.312469 37,000 93 507 0
2019-10-18 16:35:01 GMT 34.923630 -108.336411 37,000 93 507 0
2019-10-18 16:34:56 GMT 34.924301 -108.348343 37,000 93 507 0
2019-10-18 16:34:51 GMT 34.925163 -108.364563 37,000 93 507 0
2019-10-18 16:34:46 GMT 34.925903 -108.377663 37,000 93 507 0
2019-10-18 16:34:40 GMT 34.926933 -108.397293 37,000 93 507 0
2019-10-18 16:34:36 GMT 34.927505 -108.407814 37,000 93 507 0
2019-10-18 16:34:28 GMT 34.928703 -108.429680 37,000 93 507 0
2019-10-18 16:34:24 GMT 34.929199 -108.439377 37,000 93 507 64
2019-10-18 16:34:17 GMT 34.930241 -108.459038 37,000 93 508 0
2019-10-18 16:34:14 GMT 34.930752 -108.468414 37,000 93 508 0
2019-10-18 16:34:07 GMT 34.931915 -108.490334 37,000 93 508 0
2019-10-18 16:34:03 GMT 34.932426 -108.500343 37,000 93 509 0
2019-10-18 16:33:52 GMT 34.934055 -108.530334 37,000 93 509 0
2019-10-18 16:33:42 GMT 34.935745 -108.562302 37,000 93 509 0
2019-10-18 16:33:33 GMT 34.936897 -108.584000 37,000 93 509 0
2019-10-18 16:33:30 GMT 34.937454 -108.594017 37,000 93 509 0
2019-10-18 16:33:22 GMT 34.938629 -108.617119 37,000 93 509 0
2019-10-18 16:33:10 GMT 34.940529 -108.653984 37,000 93 509 0
2019-10-18 16:32:59 GMT 34.942062 -108.684258 37,000 93 509 0
2019-10-18 16:32:48 GMT 34.943619 -108.714539 37,000 93 509 0
2019-10-18 16:32:37 GMT 34.945221 -108.745033 37,000 93 509 0
2019-10-18 16:32:28 GMT 34.946457 -108.769020 37,000 93 508 0
2019-10-18 16:32:25 GMT 34.946915 -108.777260 37,000 93 508 0
2019-10-18 16:32:16 GMT 34.948517 -108.807190 37,000 93 507 0
2019-10-18 16:32:05 GMT 34.950211 -108.839035 37,000 93 507 64
2019-10-18 16:31:53 GMT 34.951859 -108.868904 37,000 93 507 0
2019-10-18 16:31:43 GMT 34.953377 -108.899055 37,000 93 506 0
2019-10-18 16:31:31 GMT 34.955017 -108.933197 37,000 93 507 0
2019-10-18 16:31:20 GMT 34.956635 -108.966522 37,000 93 507 -64
2019-10-18 16:31:08 GMT 34.958176 -108.999062 37,000 93 508 0
2019-10-18 16:31:00 GMT 34.959274 -109.021927 37,000 93 509 0
2019-10-18 16:30:57 GMT 34.959732 -109.032524 37,000 93 509 0
2019-10-18 16:30:49 GMT 34.960732 -109.053383 37,000 93 509 -64
2019-10-18 16:30:45 GMT 34.961243 -109.064529 37,000 93 509 -64
2019-10-18 16:30:37 GMT 34.962219 -109.086571 37,000 93 509 0
2019-10-18 16:30:33 GMT 34.962730 -109.097786 37,000 93 510 0
2019-10-18 16:30:26 GMT 34.963711 -109.118385 37,000 93 510 0
2019-10-18 16:30:22 GMT 34.964268 -109.130119 37,000 93 510 0
2019-10-18 16:30:16 GMT 34.964905 -109.147041 37,000 91 511 0
2019-10-18 16:30:11 GMT 34.965107 -109.161987 37,000 89 511 0
2019-10-18 16:30:05 GMT 34.964905 -109.179550 37,000 88 512 64
2019-10-18 16:29:59 GMT 34.964596 -109.197121 37,000 88 512 0
2019-10-18 16:29:53 GMT 34.964264 -109.213516 37,000 88 513 0
2019-10-18 16:29:48 GMT 34.964035 -109.228256 37,000 88 513 0
2019-10-18 16:29:42 GMT 34.963757 -109.244102 37,000 88 514 0
2019-10-18 16:29:34 GMT 34.963440 -109.267555 37,000 89 514 0
2019-10-18 16:29:31 GMT 34.963383 -109.275055 37,000 89 515 0
2019-10-18 16:29:25 GMT 34.963120 -109.296196 37,000 89 515 64
2019-10-18 16:29:19 GMT 34.962936 -109.311272 37,000 89 516 64
2019-10-18 16:29:10 GMT 34.962570 -109.337952 37,000 89 516 0
2019-10-18 16:28:59 GMT 34.962173 -109.370499 37,000 89 517 -64
2019-10-18 16:28:46 GMT 34.961746 -109.406281 37,000 89 519 -64
2019-10-18 16:28:37 GMT 34.961430 -109.435219 37,000 89 520 64
2019-10-18 16:28:25 GMT 34.960964 -109.468513 37,000 89 520 0
2019-10-18 16:28:14 GMT 34.960449 -109.499474 37,000 88 520 0
2019-10-18 16:28:03 GMT 34.959869 -109.534309 37,000 88 520 0
2019-10-18 16:27:52 GMT 34.959366 -109.564407 37,000 88 521 0
2019-10-18 16:27:46 GMT 34.959000 -109.584923 37,000 88 522 0
2019-10-18 16:27:41 GMT 34.958683 -109.600525 37,000 88 522 0
2019-10-18 16:27:30 GMT 34.957657 -109.653687 37,000 88 523 0
2019-10-18 16:27:19 GMT 34.957474 -109.662498 37,000 88 523 -64
2019-10-18 16:27:10 GMT 34.956821 -109.691620 37,000 88 523 64
2019-10-18 16:26:57 GMT 34.955982 -109.730415 37,000 88 523 0
2019-10-18 16:26:54 GMT 34.955795 -109.738312 37,000 88 523 0
2019-10-18 16:26:48 GMT 34.955376 -109.757133 37,000 88 523 0
2019-10-18 16:26:36 GMT 34.954540 -109.791641 37,000 88 524 0
2019-10-18 16:26:23 GMT 34.953690 -109.825836 37,000 88 525 -64
2019-10-18 16:26:10 GMT 34.952728 -109.867203 37,000 88 526 0
2019-10-18 16:26:00 GMT 34.952118 -109.898529 37,000 88 526 0
2019-10-18 16:25:47 GMT 34.951355 -109.934021 37,000 88 526 64
2019-10-18 16:25:29 GMT 34.950119 -109.986092 37,000 87 527 0
2019-10-18 16:25:20 GMT 34.949371 -110.015373 37,000 88 527 0
2019-10-18 16:25:12 GMT 34.948700 -110.039116 37,000 88 527 0
2019-10-18 16:24:58 GMT 34.947556 -110.078835 37,000 88 527 -64
2019-10-18 16:24:54 GMT 34.947277 -110.089188 37,000 88 527 0
2019-10-18 16:24:46 GMT 34.946579 -110.115562 37,000 88 527 64
2019-10-18 16:24:33 GMT 34.945648 -110.152588 37,000 88 527 0
2019-10-18 16:24:25 GMT 34.945042 -110.177193 37,000 88 527 -64
2019-10-18 16:24:14 GMT 34.944168 -110.212433 37,000 88 527 -64
2019-10-18 16:24:02 GMT 34.943367 -110.245003 37,000 88 527 0
2019-10-18 16:23:51 GMT 34.942520 -110.278183 37,000 88 528 0
2019-10-18 16:23:40 GMT 34.941238 -110.327118 37,000 88 528 0
2019-10-18 16:23:28 GMT 34.940762 -110.347595 37,000 88 528 0
2019-10-18 16:23:16 GMT 34.940002 -110.380814 37,000 88 528 0
2019-10-18 16:23:05 GMT 34.939224 -110.415848 37,000 88 528 -64
2019-10-18 16:22:53 GMT 34.938354 -110.453514 37,000 88 528 64
2019-10-18 16:22:42 GMT 34.937622 -110.485916 37,000 88 529 0
2019-10-18 16:22:30 GMT 34.936710 -110.520683 37,000 88 529 -64
2019-10-18 16:22:20 GMT 34.935013 -110.585579 37,000 88 529 0
2019-10-18 16:22:07 GMT 34.934101 -110.621857 37,000 88 529 0
2019-10-18 16:21:55 GMT 34.934101 -110.621857 37,000 88 529 0
2019-10-18 16:21:44 GMT 34.933319 -110.656708 37,000 88 530 0
2019-10-18 16:21:33 GMT 34.932495 -110.689445 37,000 88 530 0
2019-10-18 16:21:23 GMT 34.931774 -110.715408 37,000 87 531 0
2019-10-18 16:21:12 GMT 34.930618 -110.753845 37,000 87 531 0
2019-10-18 16:21:02 GMT 34.929680 -110.783096 37,000 87 531 0
2019-10-18 16:20:51 GMT 34.928658 -110.815315 37,000 87 531 0
2019-10-18 16:20:40 GMT 34.927540 -110.848389 37,000 87 531 0
2019-10-18 16:20:29 GMT 34.926498 -110.880920 37,000 87 531 0
2019-10-18 16:20:20 GMT 34.925629 -110.907440 37,000 87 530 64
2019-10-18 16:20:16 GMT 34.925304 -110.917915 37,000 87 531 64
2019-10-18 16:20:07 GMT 34.924438 -110.945320 37,000 87 532 64
2019-10-18 16:20:03 GMT 34.924118 -110.956978 37,000 87 532 64
2019-10-18 16:19:57 GMT 34.923615 -110.972565 36,975 87 535 -64
2019-10-18 16:19:54 GMT 34.923302 -110.981544 36,975 87 534 0
2019-10-18 16:19:51 GMT 34.923065 -110.989662 36,975 87 535 -64
2019-10-18 16:19:46 GMT 34.922424 -111.010735 37,000 87 536 -192
2019-10-18 16:19:43 GMT 34.922234 -111.016731 37,000 87 536 -192
2019-10-18 16:19:39 GMT 34.921860 -111.028458 37,000 87 536 -128
2019-10-18 16:19:35 GMT 34.921509 -111.038704 37,000 88 535 64
2019-10-18 16:19:32 GMT 34.921162 -111.050774 37,025 87 536 0
2019-10-18 16:19:28 GMT 34.920868 -111.061913 37,025 88 535 64
2019-10-18 16:19:25 GMT 34.920509 -111.073318 37,000 87 535 0
2019-10-18 16:19:21 GMT 34.920277 -111.082649 37,000 87 535 64
2019-10-18 16:19:14 GMT 34.919632 -111.104568 37,000 87 534 64
2019-10-18 16:19:09 GMT 34.919254 -111.116585 37,000 87 534 128
2019-10-18 16:19:03 GMT 34.918739 -111.135178 37,000 87 535 64
2019-10-18 16:18:58 GMT 34.918259 -111.150528 37,000 87 535 -128
2019-10-18 16:18:52 GMT 34.917755 -111.167068 37,000 87 535 -64
2019-10-18 16:18:48 GMT 34.917297 -111.183266 37,000 87 535 0
2019-10-18 16:18:41 GMT 34.916740 -111.201614 37,000 87 535 -64
2019-10-18 16:18:35 GMT 34.916180 -111.218147 37,000 87 534 -64
2019-10-18 16:18:29 GMT 34.915512 -111.239151 37,025 87 533 -64
2019-10-18 16:18:25 GMT 34.915054 -111.252602 37,000 87 533 -128
2019-10-18 16:18:20 GMT 34.914642 -111.265755 36,975 87 533 192
2019-10-18 16:18:17 GMT 34.914410 -111.273254 36,975 87 533 64
2019-10-18 16:18:12 GMT 34.913944 -111.287666 37,000 87 534 -128
2019-10-18 16:18:08 GMT 34.913406 -111.302658 37,000 87 534 64
2019-10-18 16:18:01 GMT 34.912720 -111.321831 37,000 87 534 -128
2019-10-18 16:17:57 GMT 34.912170 -111.336853 37,000 87 533 -128
2019-10-18 16:17:50 GMT 34.911484 -111.356583 37,000 87 530 192
2019-10-18 16:17:47 GMT 34.911163 -111.364929 37,000 87 532 64
2019-10-18 16:17:43 GMT 34.910828 -111.375107 37,000 87 531 -64
2019-10-18 16:17:39 GMT 34.910408 -111.387062 37,000 87 531 -64
2019-10-18 16:17:36 GMT 34.910084 -111.396561 37,025 87 531 -64
2019-10-18 16:17:33 GMT 34.909710 -111.405830 37,025 87 530 64
2019-10-18 16:17:29 GMT 34.909241 -111.419807 37,000 87 530 192
2019-10-18 16:17:25 GMT 34.908737 -111.433205 37,000 87 530 128
2019-10-18 16:17:22 GMT 34.908451 -111.440964 37,000 87 530 -64
2019-10-18 16:17:18 GMT 34.908051 -111.452263 37,000 87 530 -64
2019-10-18 16:17:15 GMT 34.907661 -111.461792 37,000 87 530 -64
2019-10-18 16:17:10 GMT 34.907181 -111.474289 37,000 87 530 64
2019-10-18 16:17:06 GMT 34.906685 -111.487373 37,000 87 530 64
2019-10-18 16:17:03 GMT 34.906452 -111.493607 37,000 87 530 64
2019-10-18 16:16:58 GMT 34.905762 -111.511787 37,000 87 530 0
2019-10-18 16:16:54 GMT 34.905304 -111.523956 37,000 87 530 64
2019-10-18 16:16:46 GMT 34.904434 -111.547775 37,000 87 531 0
2019-10-18 16:16:43 GMT 34.904114 -111.556465 37,000 87 531 0
2019-10-18 16:16:36 GMT 34.903290 -111.579445 37,000 87 531 0
2019-10-18 16:16:33 GMT 34.903015 -111.587181 37,000 87 532 0
2019-10-18 16:16:22 GMT 34.901825 -111.620644 37,000 87 532 0
2019-10-18 16:16:10 GMT 34.900681 -111.653770 37,000 87 532 0
2019-10-18 16:16:00 GMT 34.899609 -111.686951 37,000 87 531 0
2019-10-18 16:15:50 GMT 34.898396 -111.723061 37,000 87 531 0
2019-10-18 16:15:36 GMT 34.897282 -111.755280 37,000 87 531 64
2019-10-18 16:15:26 GMT 34.896301 -111.783890 37,000 87 531 64
2019-10-18 16:15:23 GMT 34.896023 -111.791901 37,000 87 531 0
2019-10-18 16:15:16 GMT 34.894821 -111.827988 37,000 87 531 0
2019-10-18 16:15:07 GMT 34.894207 -111.847115 37,000 87 531 0
2019-10-18 16:15:04 GMT 34.893974 -111.853355 37,000 87 532 0
2019-10-18 16:15:00 GMT 34.893677 -111.862343 37,000 87 532 0
2019-10-18 16:14:56 GMT 34.893219 -111.874565 37,000 87 532 -64
2019-10-18 16:14:52 GMT 34.892670 -111.889801 37,000 87 531 64
2019-10-18 16:14:49 GMT 34.892395 -111.897263 37,000 87 532 0
2019-10-18 16:14:42 GMT 34.891647 -111.916122 37,000 87 532 -64
2019-10-18 16:14:39 GMT 34.891319 -111.923561 37,000 87 531 64
2019-10-18 16:14:34 GMT 34.889969 -111.957298 37,000 87 531 64
2019-10-18 16:14:29 GMT 34.889969 -111.957298 37,000 87 531 64
2019-10-18 16:14:25 GMT 34.888947 -111.982040 37,000 87 531 0
2019-10-18 16:14:21 GMT 34.888947 -111.982040 37,000 87 531 0
2019-10-18 16:14:17 GMT 34.888527 -111.992455 37,000 87 531 0
2019-10-18 16:14:14 GMT 34.888203 -112.000526 37,000 87 531 0
2019-10-18 16:14:10 GMT 34.887646 -112.013344 37,000 87 532 0
2019-10-18 16:14:05 GMT 34.887039 -112.028595 37,000 87 532 0
2019-10-18 16:13:59 GMT 34.885208 -112.071648 37,000 86 533 -64
2019-10-18 16:13:51 GMT 34.885208 -112.071648 37,000 86 533 -64
2019-10-18 16:13:45 GMT 34.884613 -112.085434 37,000 86 534 -64
2019-10-18 16:13:42 GMT 34.884106 -112.097450 37,000 87 534 0
2019-10-18 16:13:38 GMT 34.883743 -112.105225 37,000 87 534 -64
2019-10-18 16:13:35 GMT 34.883408 -112.113937 37,000 87 534 -64
2019-10-18 16:13:31 GMT 34.882645 -112.131340 37,000 87 534 -64
2019-10-18 16:13:28 GMT 34.882324 -112.139694 37,000 87 534 0
2019-10-18 16:13:23 GMT 34.881638 -112.157127 37,000 87 534 0
2019-10-18 16:13:18 GMT 34.881268 -112.166122 37,000 87 533 0
2019-10-18 16:13:13 GMT 34.880569 -112.184090 37,000 87 533 64
2019-10-18 16:13:07 GMT 34.879898 -112.200233 37,000 87 533 64
2019-10-18 16:13:04 GMT 34.879498 -112.210693 37,000 87 533 0
2019-10-18 16:13:01 GMT 34.878983 -112.222649 37,000 87 532 0
2019-10-18 16:12:57 GMT 34.878567 -112.233414 37,000 87 532 0
2019-10-18 16:12:53 GMT 34.878239 -112.240623 37,000 87 530 -64
2019-10-18 16:12:48 GMT 34.877518 -112.258247 37,000 87 532 64
2019-10-18 16:12:45 GMT 34.877106 -112.268112 37,000 87 531 0
2019-10-18 16:12:42 GMT 34.876785 -112.275566 37,000 87 531 0
2019-10-18 16:12:33 GMT 34.875458 -112.308693 37,000 87 529 0
2019-10-18 16:12:19 GMT 34.873863 -112.345848 37,000 87 529 0
2019-10-18 16:12:09 GMT 34.872562 -112.376694 37,000 86 527 0
2019-10-18 16:12:00 GMT 34.871429 -112.402748 37,000 86 527 -64
2019-10-18 16:11:56 GMT 34.870926 -112.414856 37,000 86 527 -64
2019-10-18 16:11:48 GMT 34.870010 -112.436157 37,000 86 526 0
2019-10-18 16:11:44 GMT 34.869370 -112.450340 37,000 87 526 0
2019-10-18 16:11:35 GMT 34.868324 -112.475739 37,000 87 526 0
2019-10-18 16:11:32 GMT 34.868000 -112.482834 37,000 87 526 0
2019-10-18 16:11:25 GMT 34.866554 -112.517677 37,000 86 525 -64
2019-10-18 16:11:21 GMT 34.866554 -112.517677 37,000 87 526 0
2019-10-18 16:11:15 GMT 34.865021 -112.553963 37,000 86 526 0
2019-10-18 16:11:08 GMT 34.865021 -112.553963 37,000 87 526 0
2019-10-18 16:11:05 GMT 34.864647 -112.563110 37,000 87 526 0
2019-10-18 16:10:57 GMT 34.863529 -112.588806 37,000 86 525 -64
2019-10-18 16:10:54 GMT 34.863144 -112.597641 37,000 86 525 0
2019-10-18 16:10:51 GMT 34.862869 -112.603813 37,000 86 525 0
2019-10-18 16:10:46 GMT 34.862225 -112.618561 37,000 86 524 0
2019-10-18 16:10:41 GMT 34.861542 -112.634132 37,000 86 524 0
2019-10-18 16:10:35 GMT 34.860737 -112.652092 37,000 86 523 64
2019-10-18 16:10:32 GMT 34.860260 -112.662102 37,000 86 523 64
2019-10-18 16:10:24 GMT 34.859200 -112.684708 37,000 86 523 64
2019-10-18 16:10:20 GMT 34.858734 -112.695580 37,000 86 523 64
2019-10-18 16:10:12 GMT 34.857147 -112.729927 37,000 86 523 -64
2019-10-18 16:10:09 GMT 34.857147 -112.729927 37,000 86 524 -64
2019-10-18 16:10:02 GMT 34.856369 -112.747025 37,000 86 524 -64
2019-10-18 16:09:58 GMT 34.855637 -112.762268 37,000 86 523 -64
2019-10-18 16:09:48 GMT 34.854218 -112.791077 37,000 86 523 -64
2019-10-18 16:09:45 GMT 34.853943 -112.796631 37,000 86 523 0
2019-10-18 16:09:38 GMT 34.853008 -112.816315 37,000 86 522 64
2019-10-18 16:09:35 GMT 34.852524 -112.826843 37,000 86 522 64
2019-10-18 16:09:26 GMT 34.851192 -112.854362 37,000 86 521 64
2019-10-18 16:09:20 GMT 34.850327 -112.873367 37,000 86 522 -64
2019-10-18 16:09:15 GMT 34.849686 -112.887154 37,000 86 522 0
2019-10-18 16:09:05 GMT 34.848354 -112.917023 37,000 86 522 0
2019-10-18 16:09:02 GMT 34.847946 -112.925835 37,000 86 522 0
2019-10-18 16:08:54 GMT 34.846909 -112.948380 37,000 86 522 -64
2019-10-18 16:08:41 GMT 34.845280 -112.984718 37,000 86 521 0
2019-10-18 16:08:29 GMT 34.843697 -113.020081 37,000 86 520 -64
2019-10-18 16:08:19 GMT 34.842255 -113.051888 37,000 86 520 0
2019-10-18 16:08:08 GMT 34.840767 -113.083939 37,000 86 518 64
2019-10-18 16:07:59 GMT 34.839554 -113.108940 37,000 86 517 0
2019-10-18 16:07:47 GMT 34.837833 -113.145447 37,000 86 515 0
2019-10-18 16:07:37 GMT 34.836502 -113.173195 37,000 86 514 64
2019-10-18 16:07:34 GMT 34.836090 -113.182159 37,000 86 514 64
2019-10-18 16:07:22 GMT 34.833878 -113.227959 37,000 86 512 0
2019-10-18 16:07:13 GMT 34.833115 -113.243202 37,000 86 512 0
2019-10-18 16:07:02 GMT 34.831604 -113.273918 37,000 86 512 0
2019-10-18 16:06:50 GMT 34.829727 -113.309174 37,000 86 512 0
2019-10-18 16:06:40 GMT 34.828243 -113.336739 37,000 86 512 0
2019-10-18 16:06:30 GMT 34.826614 -113.366318 37,000 86 513 -64
2019-10-18 16:06:17 GMT 34.824703 -113.401909 37,000 86 513 0
2019-10-18 16:06:14 GMT 34.824188 -113.411140 37,000 86 513 -64
2019-10-18 16:06:05 GMT 34.822842 -113.436127 37,000 86 513 0
2019-10-18 16:05:56 GMT 34.821354 -113.463989 37,000 86 513 64
2019-10-18 16:05:41 GMT 34.818607 -113.518005 37,000 86 513 0
2019-10-18 16:05:33 GMT 34.818047 -113.529800 37,000 86 512 -64
2019-10-18 16:05:21 GMT 34.816452 -113.564331 37,000 86 512 -64
2019-10-18 16:05:10 GMT 34.815067 -113.594170 37,000 86 511 0
2019-10-18 16:04:58 GMT 34.812695 -113.641373 37,000 86 510 0
2019-10-18 16:04:49 GMT 34.811966 -113.655975 37,000 86 510 64
2019-10-18 16:04:44 GMT 34.811096 -113.674080 36,975 86 511 64
2019-10-18 16:04:37 GMT 34.810318 -113.688988 37,000 86 511 0
2019-10-18 16:04:28 GMT 34.808990 -113.715668 37,000 86 512 0
2019-10-18 16:04:16 GMT 34.807251 -113.749916 37,000 86 514 -64
2019-10-18 16:04:04 GMT 34.805237 -113.788429 37,000 86 512 0
2019-10-18 16:03:53 GMT 34.803104 -113.829514 37,000 86 512 0
2019-10-18 16:03:44 GMT 34.802490 -113.840385 37,000 85 512 0
2019-10-18 16:03:37 GMT 34.801300 -113.863029 37,000 86 512 0
2019-10-18 16:03:32 GMT 34.800705 -113.874245 37,000 85 512 0
2019-10-18 16:03:23 GMT 34.799149 -113.902328 37,000 86 512 0
2019-10-18 16:03:10 GMT 34.797192 -113.938126 37,000 86 512 0
2019-10-18 16:02:59 GMT 34.795441 -113.969139 37,000 85 512 0
2019-10-18 16:02:47 GMT 34.793564 -114.002380 37,000 85 512 0
2019-10-18 16:02:36 GMT 34.791653 -114.035400 37,000 85 513 0
2019-10-18 16:02:22 GMT 34.788532 -114.089417 37,000 86 513 0
2019-10-18 16:02:11 GMT 34.787464 -114.109268 37,000 85 511 0
2019-10-18 16:02:03 GMT 34.786301 -114.131065 37,000 86 513 0
2019-10-18 16:01:53 GMT 34.781937 -114.208824 37,000 85 510 64
2019-10-18 16:01:35 GMT 34.781937 -114.208824 37,000 85 511 0
2019-10-18 16:01:32 GMT 34.781296 -114.219978 37,000 85 511 0
2019-10-18 16:01:27 GMT 34.780342 -114.235664 37,000 85 510 64
2019-10-18 16:01:23 GMT 34.779694 -114.246544 37,000 85 510 0
2019-10-18 16:01:12 GMT 34.777779 -114.277954 37,000 85 510 0
2019-10-18 16:01:07 GMT 34.776848 -114.293922 37,000 85 510 64
2019-10-18 16:00:58 GMT 34.775547 -114.316238 37,000 85 511 0
2019-10-18 16:00:51 GMT 34.774429 -114.335060 37,000 85 511 0
2019-10-18 16:00:43 GMT 34.773033 -114.359947 37,000 85 511 0
2019-10-18 16:00:29 GMT 34.770702 -114.398918 37,000 85 511 0
2019-10-18 16:00:20 GMT 34.769028 -114.427261 37,000 85 512 0
2019-10-18 16:00:12 GMT 34.767563 -114.450409 37,000 86 512 -64
2019-10-18 16:00:08 GMT 34.767197 -114.457581 37,000 87 512 0
2019-10-18 15:59:57 GMT 34.766556 -114.490654 37,000 90 513 -64
2019-10-18 15:59:35 GMT 34.767975 -114.553268 37,000 91 512 64
2019-10-18 15:59:32 GMT 34.768192 -114.562454 37,000 91 512 0
2019-10-18 15:59:25 GMT 34.768703 -114.584824 37,000 91 512 0
2019-10-18 15:59:19 GMT 34.769028 -114.599762 37,000 91 512 0
2019-10-18 15:59:16 GMT 34.769165 -114.607185 37,000 91 512 0
2019-10-18 15:59:13 GMT 34.769356 -114.617561 37,000 91 512 0
2019-10-18 15:59:07 GMT 34.769680 -114.632774 37,000 91 512 0
2019-10-18 15:59:00 GMT 34.770191 -114.656586 37,000 91 511 0
2019-10-18 15:58:53 GMT 34.770584 -114.674057 37,000 91 511 0
2019-10-18 15:58:44 GMT 34.771122 -114.698410 37,000 91 511 -64
2019-10-18 15:58:36 GMT 34.771683 -114.723053 37,000 91 510 -64
2019-10-18 15:58:28 GMT 34.772194 -114.746758 37,000 91 509 -64
2019-10-18 15:58:20 GMT 34.772690 -114.767609 37,000 91 509 -64
2019-10-18 15:58:15 GMT 34.773125 -114.786758 37,000 91 509 0
2019-10-18 15:58:06 GMT 34.773651 -114.812401 37,000 91 508 64
2019-10-18 15:57:57 GMT 34.774010 -114.832649 37,000 91 508 64
2019-10-18 15:57:54 GMT 34.774200 -114.840927 37,000 91 508 0
2019-10-18 15:57:51 GMT 34.774334 -114.849472 37,000 91 509 64
2019-10-18 15:57:43 GMT 34.774750 -114.873436 37,000 91 509 64
2019-10-18 15:57:40 GMT 34.774979 -114.885712 37,000 91 509 0
2019-10-18 15:57:32 GMT 34.775391 -114.908585 37,000 91 510 -64
2019-10-18 15:57:29 GMT 34.775497 -114.914871 37,000 91 510 -64
2019-10-18 15:57:20 GMT 34.775940 -114.938011 37,000 91 510 0
2019-10-18 15:57:15 GMT 34.776306 -114.955727 37,000 91 510 -64
2019-10-18 15:57:10 GMT 34.776615 -114.970612 37,000 91 510 0
2019-10-18 15:57:04 GMT 34.776901 -114.984589 37,000 91 510 0
2019-10-18 15:56:59 GMT 34.777313 -115.003479 37,000 91 509 0
2019-10-18 15:56:55 GMT 34.777500 -115.013184 37,000 91 509 0
2019-10-18 15:56:47 GMT 34.777966 -115.036583 37,000 91 509 0
2019-10-18 15:56:42 GMT 34.778183 -115.048271 37,000 91 508 0
2019-10-18 15:56:35 GMT 34.778526 -115.069366 37,000 91 508 0
2019-10-18 15:56:29 GMT 34.778778 -115.083916 37,000 91 508 -64
2019-10-18 15:56:25 GMT 34.779053 -115.100174 37,000 91 508 64
2019-10-18 15:56:21 GMT 34.779236 -115.109589 37,000 91 508 0
2019-10-18 15:56:14 GMT 34.779549 -115.130653 37,000 91 508 64
2019-10-18 15:56:09 GMT 34.779831 -115.145462 37,000 91 507 0
2019-10-18 15:56:03 GMT 34.780109 -115.161667 37,000 91 505 64
2019-10-18 15:55:58 GMT 34.780342 -115.173912 37,000 91 505 64
2019-10-18 15:55:52 GMT 34.780712 -115.193825 37,000 91 506 0
2019-10-18 15:55:48 GMT 34.780899 -115.202065 37,000 91 505 64
2019-10-18 15:55:40 GMT 34.781364 -115.225067 37,000 91 505 64
2019-10-18 15:55:37 GMT 34.781551 -115.235535 37,000 91 505 64
2019-10-18 15:55:30 GMT 34.782017 -115.257050 37,000 91 505 64
2019-10-18 15:55:27 GMT 34.782204 -115.264725 37,000 91 505 64
2019-10-18 15:55:18 GMT 34.782669 -115.287376 37,000 91 505 0
2019-10-18 15:55:15 GMT 34.783504 -115.324173 37,000 91 505 0
2019-10-18 15:55:05 GMT 34.783504 -115.324173 37,000 91 505 0
2019-10-18 15:54:57 GMT 34.784157 -115.355583 37,000 91 505 0
2019-10-18 15:54:47 GMT 34.784500 -115.373428 37,000 91 504 0
2019-10-18 15:54:43 GMT 34.784809 -115.389008 37,000 91 504 0
2019-10-18 15:54:37 GMT 34.785183 -115.406570 37,000 91 504 0
2019-10-18 15:54:33 GMT 34.785416 -115.416985 37,000 91 504 0
2019-10-18 15:54:25 GMT 34.785782 -115.438789 37,000 91 504 -64
2019-10-18 15:54:21 GMT 34.785927 -115.447823 37,000 91 503 -64
2019-10-18 15:54:15 GMT 34.786205 -115.464188 37,000 91 503 -128
2019-10-18 15:54:10 GMT 34.786488 -115.477982 37,000 91 501 64
2019-10-18 15:54:02 GMT 34.786999 -115.505333 37,025 91 502 64
2019-10-18 15:53:59 GMT 34.787090 -115.510139 37,025 91 502 64
2019-10-18 15:53:53 GMT 34.787384 -115.529533 37,000 91 501 0
2019-10-18 15:53:50 GMT 34.787556 -115.539093 37,000 91 501 0
2019-10-18 15:53:44 GMT 34.787884 -115.557632 37,000 91 500 64
2019-10-18 15:53:38 GMT 34.788116 -115.571938 37,000 91 500 64
2019-10-18 15:53:31 GMT 34.788437 -115.591309 37,000 91 500 64
2019-10-18 15:53:27 GMT 34.789032 -115.629532 37,000 91 501 64
2019-10-18 15:53:17 GMT 34.789032 -115.629532 37,000 91 502 0
2019-10-18 15:53:09 GMT 34.789417 -115.656570 37,000 90 504 0
2019-10-18 15:53:05 GMT 34.789513 -115.662521 37,000 90 504 0
2019-10-18 15:52:58 GMT 34.789810 -115.684296 37,000 90 504 0
2019-10-18 15:52:54 GMT 34.789978 -115.697021 37,000 90 504 -128
2019-10-18 15:52:44 GMT 34.790268 -115.721352 37,000 90 504 -128
2019-10-18 15:52:34 GMT 34.790634 -115.752686 37,000 90 502 512
2019-10-18 15:52:22 GMT 34.790909 -115.781937 36,900 90 501 640
2019-10-18 15:52:19 GMT 34.791046 -115.795158 36,850 90 501 704
2019-10-18 15:52:11 GMT 34.791229 -115.813721 36,050 90 503 1216
2019-10-18 15:52:07 GMT 34.791367 -115.828575 36,675 90 501 896
2019-10-18 15:52:03 GMT 34.791466 -115.839272 36,625 90 501 960
2019-10-18 15:52:00 GMT 34.791561 -115.847450 36,575 90 501 960
2019-10-18 15:51:56 GMT 34.791653 -115.858383 36,525 90 502 1024
2019-10-18 15:51:50 GMT 34.791870 -115.877289 36,250 90 504 1280
2019-10-18 15:51:44 GMT 34.792053 -115.892479 36,275 90 503 1216
2019-10-18 15:51:40 GMT 34.792118 -115.902100 36,225 90 503 1280
2019-10-18 15:51:37 GMT 34.792236 -115.910019 36,150 90 504 1280
2019-10-18 15:51:27 GMT 34.792511 -115.938606 35,925 90 506 1344
2019-10-18 15:51:18 GMT 34.792786 -115.965065 34,950 90 516 1664
2019-10-18 15:51:14 GMT 34.792877 -115.973923 35,600 90 510 1600
2019-10-18 15:51:07 GMT 34.793152 -115.997688 34,725 89 520 896
2019-10-18 15:51:04 GMT 34.793198 -116.005196 35,275 90 513 1920
2019-10-18 15:50:56 GMT 34.793423 -116.028275 35,050 90 515 1664
2019-10-18 15:50:53 GMT 34.793514 -116.035538 34,975 90 516 1664
2019-10-18 15:50:46 GMT 34.793747 -116.058197 34,775 90 519 1984
2019-10-18 15:50:42 GMT 34.793884 -116.071060 34,600 90 522 1728
2019-10-18 15:50:35 GMT 34.794025 -116.087151 34,475 90 523 1664
2019-10-18 15:50:31 GMT 34.794205 -116.101273 34,350 90 525 1152
2019-10-18 15:50:28 GMT 34.794250 -116.110413 34,275 90 525 1344
2019-10-18 15:50:24 GMT 34.794353 -116.119247 32,250 89 520 896
2019-10-18 15:50:20 GMT 34.794540 -116.135788 34,100 90 527 1408
2019-10-18 15:50:16 GMT 34.794678 -116.147285 33,950 90 527 1408
2019-10-18 15:50:10 GMT 34.794819 -116.163879 33,875 90 527 1472
2019-10-18 15:50:07 GMT 34.794956 -116.175385 33,775 90 528 1536
2019-10-18 15:49:59 GMT 34.795143 -116.194382 33,625 90 529 1536
2019-10-18 15:49:56 GMT 34.795238 -116.204796 33,500 90 530 1472
2019-10-18 15:49:53 GMT 34.795330 -116.215439 33,500 90 530 1472
2019-10-18 15:49:50 GMT 34.795395 -116.223808 33,350 90 530 1408
2019-10-18 15:49:47 GMT 34.795532 -116.240112 33,275 90 530 1472
2019-10-18 15:49:44 GMT 34.795532 -116.240112 33,175 90 530 1344
2019-10-18 15:49:38 GMT 34.795704 -116.261269 33,075 90 530 1216
2019-10-18 15:49:33 GMT 34.795841 -116.276154 32,975 90 529 1152
2019-10-18 15:49:27 GMT 34.795937 -116.292747 32,875 90 529 1088
2019-10-18 15:49:24 GMT 34.796036 -116.302559 32,825 90 528 960
2019-10-18 15:49:21 GMT 34.796173 -116.327728 32,250 89 520 896
2019-10-18 15:49:14 GMT 34.796173 -116.327728 32,700 90 527 896
2019-10-18 15:49:09 GMT 34.796356 -116.358109 32,250 89 520 896
2019-10-18 15:49:04 GMT 34.796356 -116.358109 32,550 90 524 896
2019-10-18 15:48:58 GMT 34.796448 -116.373970 32,400 90 522 960
2019-10-18 15:48:52 GMT 34.796585 -116.393311 32,350 90 522 960
2019-10-18 15:48:49 GMT 34.796635 -116.402092 32,300 90 522 960
2019-10-18 15:48:41 GMT 34.796726 -116.424065 32,200 89 520 896
2019-10-18 15:48:38 GMT 34.796589 -116.434250 32,150 87 519 1024
2019-10-18 15:48:31 GMT 34.795563 -116.458626 32,000 85 516 960
2019-10-18 15:48:26 GMT 34.794571 -116.472794 31,625 80 513 1408
2019-10-18 15:48:20 GMT 34.792191 -116.497177 31,775 82 514 1408
2019-10-18 15:48:17 GMT 34.792191 -116.497177 31,700 81 513 1408
2019-10-18 15:48:09 GMT 34.789490 -116.517693 31,500 80 513 1472
2019-10-18 15:48:05 GMT 34.787510 -116.531868 31,400 80 513 1472
2019-10-18 15:47:57 GMT 34.784435 -116.553726 31,225 80 514 1600
2019-10-18 15:47:54 GMT 34.783447 -116.560852 31,125 80 514 1600
2019-10-18 15:47:47 GMT 34.780342 -116.583023 30,975 80 514 1280
2019-10-18 15:47:41 GMT 34.778339 -116.597504 30,875 80 513 1024
2019-10-18 15:47:35 GMT 34.775917 -116.614555 30,700 80 511 1088
2019-10-18 15:47:32 GMT 34.771912 -116.642799 30,475 80 511 1216
2019-10-18 15:47:26 GMT 34.771912 -116.642799 30,500 80 510 1280
2019-10-18 15:47:23 GMT 34.770996 -116.649300 30,325 80 509 1024
2019-10-18 15:47:20 GMT 34.769867 -116.657234 30,475 80 510 1088
2019-10-18 15:47:14 GMT 34.767307 -116.675262 30,375 80 508 1152
2019-10-18 15:47:11 GMT 34.766376 -116.681725 30,250 80 508 1216
2019-10-18 15:47:08 GMT 34.765274 -116.689606 30,275 80 508 1216
2019-10-18 15:47:04 GMT 34.763077 -116.705070 30,150 80 506 960
2019-10-18 15:47:01 GMT 34.761765 -116.714005 30,125 80 506 960
2019-10-18 15:46:57 GMT 34.760788 -116.721039 30,075 80 506 960
2019-10-18 15:46:53 GMT 34.758694 -116.735573 29,950 80 505 1216
2019-10-18 15:46:50 GMT 34.757717 -116.742554 29,875 80 504 1152
2019-10-18 15:46:46 GMT 34.756531 -116.750923 29,875 80 504 1216
2019-10-18 15:46:42 GMT 34.754364 -116.765961 29,750 80 503 1024
2019-10-18 15:46:38 GMT 34.752968 -116.775742 29,700 80 503 1088
2019-10-18 15:46:35 GMT 34.751633 -116.784889 29,650 80 502 1216
2019-10-18 15:46:29 GMT 34.749527 -116.799576 28,775 80 495 1152
2019-10-18 15:46:26 GMT 34.748016 -116.809837 29,450 80 501 1152
2019-10-18 15:46:19 GMT 34.745087 -116.830353 29,325 80 500 1216
2019-10-18 15:46:16 GMT 34.744030 -116.837540 29,275 80 500 1216
2019-10-18 15:46:13 GMT 34.743053 -116.844460 29,225 80 500 1216
2019-10-18 15:46:09 GMT 34.741238 -116.857162 29,075 80 499 1280
2019-10-18 15:46:05 GMT 34.739513 -116.869011 29,025 80 499 1280
2019-10-18 15:46:02 GMT 34.738445 -116.876450 28,975 80 498 1280
2019-10-18 15:45:56 GMT 34.736481 -116.889992 28,800 80 497 1280
2019-10-18 15:45:53 GMT 34.734787 -116.901817 28,775 80 497 1280
2019-10-18 15:45:48 GMT 34.732765 -116.915817 28,650 80 496 1344
2019-10-18 15:45:45 GMT 34.731506 -116.924286 28,600 80 495 1280
2019-10-18 15:45:42 GMT 34.730621 -116.930290 28,550 80 495 1152
2019-10-18 15:45:38 GMT 34.729507 -116.938248 28,500 79 494 1152
2019-10-18 15:45:34 GMT 34.727085 -116.954613 28,400 79 493 1344
2019-10-18 15:45:29 GMT 34.725677 -116.964432 28,300 79 493 1408
2019-10-18 15:45:26 GMT 34.724197 -116.974525 28,200 79 492 1344
2019-10-18 15:45:20 GMT 34.721970 -116.989708 28,075 79 491 1280
2019-10-18 15:45:15 GMT 34.718719 -117.011963 27,950 79 485 1472
2019-10-18 15:45:12 GMT 34.718719 -117.011963 27,875 79 489 1152
2019-10-18 15:45:09 GMT 34.717682 -117.018990 27,850 79 489 1216
2019-10-18 15:45:04 GMT 34.715633 -117.033005 27,750 79 487 960
2019-10-18 15:45:00 GMT 34.714233 -117.042732 27,700 79 486 1024
2019-10-18 15:44:57 GMT 34.713211 -117.049713 27,675 79 485 1344
2019-10-18 15:44:53 GMT 34.711025 -117.064705 27,525 79 485 1728
2019-10-18 15:44:50 GMT 34.710251 -117.069809 27,425 79 485 2112
2019-10-18 15:44:47 GMT 34.709068 -117.077866 27,325 79 485 2048
2019-10-18 15:44:41 GMT 34.705215 -117.104393 27,000 80 486 768
2019-10-18 15:44:38 GMT 34.705215 -117.104393 27,000 80 486 768
2019-10-18 15:44:32 GMT 34.702877 -117.120270 27,025 80 484 256
2019-10-18 15:44:28 GMT 34.701828 -117.127487 27,025 79 484 192
2019-10-18 15:44:25 GMT 34.700409 -117.137375 27,025 79 484 -64
2019-10-18 15:44:21 GMT 34.698547 -117.149963 27,000 79 484 -64
2019-10-18 15:44:18 GMT 34.697571 -117.156601 27,000 79 484 -64
2019-10-18 15:44:14 GMT 34.696014 -117.167061 27,000 79 483 0
2019-10-18 15:44:08 GMT 34.693359 -117.185165 26,950 79 482 1024
2019-10-18 15:44:05 GMT 34.692265 -117.192650 26,875 79 481 1472
2019-10-18 15:43:57 GMT 34.689240 -117.212791 26,650 79 479 1472
2019-10-18 15:43:54 GMT 34.687820 -117.222328 26,600 79 479 1536
2019-10-18 15:43:49 GMT 34.685944 -117.234993 26,475 79 478 1600
2019-10-18 15:43:46 GMT 34.685047 -117.241119 26,425 79 478 1600
2019-10-18 15:43:41 GMT 34.682953 -117.255302 26,300 79 477 1600
2019-10-18 15:43:36 GMT 34.680950 -117.268982 26,125 79 475 1600
2019-10-18 15:43:32 GMT 34.679169 -117.280792 25,900 79 474 1664
2019-10-18 15:43:29 GMT 34.678391 -117.286057 25,950 79 474 1728
2019-10-18 15:43:25 GMT 34.676437 -117.299370 25,800 79 473 1728
2019-10-18 15:43:19 GMT 34.674156 -117.314819 25,650 79 472 1536
2019-10-18 15:43:14 GMT 34.672577 -117.325462 25,425 79 470 1728
2019-10-18 15:43:10 GMT 34.670849 -117.336906 25,400 79 470 1920
2019-10-18 15:43:07 GMT 34.669594 -117.345490 25,300 79 470 1984
2019-10-18 15:43:04 GMT 34.668365 -117.353767 25,200 79 470 1728
2019-10-18 15:42:59 GMT 34.666801 -117.364426 25,075 79 470 1216
2019-10-18 15:42:56 GMT 34.665710 -117.371712 25,075 79 470 704
2019-10-18 15:42:51 GMT 34.664005 -117.383141 25,025 79 470 384
2019-10-18 15:42:47 GMT 34.661957 -117.396873 25,000 79 469 128
2019-10-18 15:42:44 GMT 34.660793 -117.404594 25,000 79 469 0
2019-10-18 15:42:40 GMT 34.659119 -117.416046 25,000 79 470 0
2019-10-18 15:42:36 GMT 34.657864 -117.424332 25,000 79 469 0
2019-10-18 15:42:33 GMT 34.657116 -117.429482 22,125 79 469 0
2019-10-18 15:42:30 GMT 34.655365 -117.441154 25,000 79 469 0
2019-10-18 15:42:25 GMT 34.653671 -117.452545 25,000 79 470 0
2019-10-18 15:42:22 GMT 34.652554 -117.460098 25,000 79 470 0
2019-10-18 15:42:19 GMT 34.651154 -117.469688 25,000 79 470 0
2019-10-18 15:42:13 GMT 34.649387 -117.481613 25,000 79 470 0
2019-10-18 15:42:10 GMT 34.647675 -117.493004 25,000 79 470 0
2019-10-18 15:42:07 GMT 34.646690 -117.499748 25,000 79 470 0
2019-10-18 15:42:04 GMT 34.645660 -117.506516 25,000 79 470 0
2019-10-18 15:42:01 GMT 34.644104 -117.516884 25,000 79 470 -64
2019-10-18 15:41:57 GMT 34.642639 -117.526703 25,000 79 470 -64
2019-10-18 15:41:53 GMT 34.641289 -117.535805 25,000 79 470 0
2019-10-18 15:41:49 GMT 34.638519 -117.554214 25,000 79 470 -64
2019-10-18 15:41:46 GMT 34.638519 -117.554214 25,000 79 470 -64
2019-10-18 15:41:42 GMT 34.636734 -117.566101 25,000 79 470 -64
2019-10-18 15:41:38 GMT 34.635544 -117.574173 25,025 79 470 -64
2019-10-18 15:41:35 GMT 34.634167 -117.583466 25,025 79 469 0
2019-10-18 15:41:32 GMT 34.633072 -117.590706 25,000 79 468 0
2019-10-18 15:41:27 GMT 34.631195 -117.602867 25,000 79 468 64
2019-10-18 15:41:24 GMT 34.629837 -117.611900 25,000 79 466 512
2019-10-18 15:41:21 GMT 34.628677 -117.619629 24,950 79 465 832
2019-10-18 15:41:17 GMT 34.627186 -117.629356 24,875 79 463 1344
2019-10-18 15:41:13 GMT 34.625565 -117.640091 24,825 79 463 1408
2019-10-18 15:41:08 GMT 34.623825 -117.651520 24,650 79 460 1344
2019-10-18 15:41:05 GMT 34.622910 -117.657349 24,625 79 460 1344
2019-10-18 15:41:02 GMT 34.620201 -117.675362 24,475 79 457 1536
2019-10-18 15:40:56 GMT 34.617828 -117.690704 24,375 79 457 1600
2019-10-18 15:40:53 GMT 34.617828 -117.690704 24,300 79 456 1600
2019-10-18 15:40:48 GMT 34.614716 -117.711052 24,100 79 454 1600
2019-10-18 15:40:45 GMT 34.613544 -117.718559 24,000 79 453 1792
2019-10-18 15:40:42 GMT 34.613544 -117.718559 24,000 79 453 1792
2019-10-18 15:40:39 GMT 34.612286 -117.726807 23,000 79 450 512
2019-10-18 15:40:36 GMT 34.611633 -117.731323 23,850 79 452 1920
2019-10-18 15:40:32 GMT 34.608719 -117.750229 23,600 79 452 1920
2019-10-18 15:40:29 GMT 34.608719 -117.750229 23,575 79 451 1984
2019-10-18 15:40:26 GMT 34.607491 -117.758217 23,525 79 451 2048
2019-10-18 15:40:21 GMT 34.605469 -117.771645 23,325 79 451 1984
2019-10-18 15:40:18 GMT 34.604511 -117.777618 23,200 79 451 1664
2019-10-18 15:40:15 GMT 34.603302 -117.785797 23,175 79 451 1344
2019-10-18 15:40:12 GMT 34.602081 -117.793785 23,125 79 450 1024
2019-10-18 15:40:09 GMT 34.601532 -117.797485 23,050 79 450 832
2019-10-18 15:40:05 GMT 34.598328 -117.818558 23,025 79 450 448
2019-10-18 15:40:02 GMT 34.598328 -117.818558 23,025 79 450 320
2019-10-18 15:39:58 GMT 34.597275 -117.825790 23,000 79 449 128
2019-10-18 15:39:54 GMT 34.595528 -117.837181 23,000 79 449 -64
2019-10-18 15:39:51 GMT 34.594364 -117.844849 22,925 79 442 1792
2019-10-18 15:39:46 GMT 34.592377 -117.857964 23,000 79 450 -64
2019-10-18 15:39:43 GMT 34.591476 -117.863960 23,000 79 449 -64
2019-10-18 15:39:40 GMT 34.590454 -117.870857 23,000 79 449 0
2019-10-18 15:39:36 GMT 34.588963 -117.880783 23,000 79 448 192
2019-10-18 15:39:33 GMT 34.587524 -117.890137 22,950 79 448 704
2019-10-18 15:39:29 GMT 34.586311 -117.898064 22,925 79 447 1088
2019-10-18 15:39:26 GMT 34.584824 -117.907906 22,800 79 445 1600
2019-10-18 15:39:19 GMT 34.582355 -117.924103 22,650 79 444 1920
2019-10-18 15:39:15 GMT 34.580795 -117.934364 22,500 79 443 1856
2019-10-18 15:39:12 GMT 34.579700 -117.941666 22,425 79 442 1792
2019-10-18 15:39:08 GMT 34.578278 -117.950897 22,325 79 442 1792
2019-10-18 15:39:04 GMT 34.576813 -117.960655 22,150 79 440 1856
2019-10-18 15:39:00 GMT 34.575184 -117.971306 22,050 79 440 1856
2019-10-18 15:38:57 GMT 34.574203 -117.977577 22,025 79 439 1792
2019-10-18 15:38:53 GMT 34.572556 -117.988457 21,825 79 437 1600
2019-10-18 15:38:49 GMT 34.571136 -117.997803 21,775 79 436 1728
2019-10-18 15:38:46 GMT 34.570038 -118.005051 21,650 79 435 1920
2019-10-18 15:38:41 GMT 34.568344 -118.016037 21,575 79 434 1920
2019-10-18 15:38:38 GMT 34.567272 -118.022980 21,425 79 433 1984
2019-10-18 15:38:35 GMT 34.566013 -118.031044 21,375 79 433 1984
2019-10-18 15:38:31 GMT 34.564499 -118.041031 21,150 79 431 1920
2019-10-18 15:38:27 GMT 34.561981 -118.057678 20,975 79 430 1920
2019-10-18 15:38:24 GMT 34.560699 -118.065918 20,900 79 429 2048
2019-10-18 15:38:20 GMT 34.560699 -118.065918 20,825 79 429 2048
2019-10-18 15:38:16 GMT 34.559143 -118.076118 20,625 79 428 2048
2019-10-18 15:38:13 GMT 34.558228 -118.082008 20,575 79 428 2048
2019-10-18 15:38:08 GMT 34.556351 -118.094231 20,400 79 427 1984
2019-10-18 15:38:04 GMT 34.554844 -118.103889 20,200 79 426 2176
2019-10-18 15:38:01 GMT 34.552746 -118.117729 20,125 79 425 2240
2019-10-18 15:37:58 GMT 34.552746 -118.117729 20,000 79 425 2176
2019-10-18 15:37:54 GMT 34.551315 -118.126846 19,900 79 424 1984
2019-10-18 15:37:51 GMT 34.550465 -118.132210 19,850 79 424 1920
2019-10-18 15:37:47 GMT 34.548977 -118.141991 19,750 79 423 1920
2019-10-18 15:37:44 GMT 34.547562 -118.151291 19,550 79 421 2112
2019-10-18 15:37:41 GMT 34.546463 -118.158241 19,475 79 420 2112
2019-10-18 15:37:38 GMT 34.545715 -118.163109 19,400 79 420 2048
2019-10-18 15:37:35 GMT 34.544586 -118.170517 19,300 79 418 1920
2019-10-18 15:37:32 GMT 34.543304 -118.179031 19,050 79 414 1856
2019-10-18 15:37:29 GMT 34.542801 -118.182228 19,125 79 416 1856
2019-10-18 15:37:26 GMT 34.541611 -118.190247 19,050 79 415 1856
2019-10-18 15:37:22 GMT 34.540272 -118.199158 18,750 79 414 1792
2019-10-18 15:37:19 GMT 34.539001 -118.207848 18,775 80 411 1792
2019-10-18 15:37:16 GMT 34.538040 -118.214401 18,725 79 410 1728
2019-10-18 15:37:13 GMT 34.536732 -118.222046 18,600 76 406 1792
2019-10-18 15:37:09 GMT 34.534882 -118.230774 18,500 74 403 2048
2019-10-18 15:37:05 GMT 34.532455 -118.239738 18,400 71 400 2176
2019-10-18 15:37:02 GMT 34.530670 -118.245346 18,200 64 392 2048
2019-10-18 15:36:57 GMT 34.526779 -118.255493 18,050 61 389 2176
2019-10-18 15:36:54 GMT 34.524628 -118.260307 18,000 61 389 2240
2019-10-18 15:36:51 GMT 34.518436 -118.272171 17,700 54 383 2560
2019-10-18 15:36:48 GMT 34.515785 -118.276466 17,600 43 374 2112
2019-10-18 15:36:45 GMT 34.515785 -118.276466 17,550 49 378 2432
2019-10-18 15:36:37 GMT 34.505630 -118.289742 17,250 41 369 2304
2019-10-18 15:36:33 GMT 34.501213 -118.294373 17,050 39 368 2624
2019-10-18 15:36:30 GMT 34.497116 -118.298492 16,975 39 368 2816
2019-10-18 15:36:24 GMT 34.489105 -118.306442 16,800 39 368 2880
2019-10-18 15:36:20 GMT 34.483292 -118.312225 16,500 39 368 2624
2019-10-18 15:36:16 GMT 34.473236 -118.322411 16,325 40 368 1984
2019-10-18 15:36:12 GMT 34.473236 -118.322411 16,225 40 367 1984
2019-10-18 15:36:09 GMT 34.469101 -118.326675 16,100 40 365 2240
2019-10-18 15:36:05 GMT 34.464203 -118.331741 15,925 40 364 2816
2019-10-18 15:36:02 GMT 34.456650 -118.339569 15,750 40 364 2880
2019-10-18 15:35:59 GMT 34.456650 -118.339569 15,650 40 364 2752
2019-10-18 15:35:54 GMT 34.450333 -118.346069 15,400 40 365 2368
2019-10-18 15:35:51 GMT 34.446236 -118.350334 15,300 40 364 2176
2019-10-18 15:35:48 GMT 34.442280 -118.354454 15,200 40 363 2048
2019-10-18 15:35:43 GMT 34.436050 -118.360924 15,000 40 360 3008
2019-10-18 15:35:37 GMT 34.428360 -118.368988 14,800 40 360 3456
2019-10-18 15:35:33 GMT 34.423050 -118.374550 14,525 41 362 3264
2019-10-18 15:35:28 GMT 34.417236 -118.380653 14,200 41 362 3136
2019-10-18 15:35:25 GMT 34.409637 -118.388725 14,025 41 362 2880
2019-10-18 15:35:22 GMT 34.409637 -118.388725 13,925 41 362 2496
2019-10-18 15:35:17 GMT 34.399403 -118.399544 13,650 41 361 2240
2019-10-18 15:35:14 GMT 34.399403 -118.399544 13,575 41 361 2176
2019-10-18 15:35:11 GMT 34.387939 -118.411880 11,850 41 355 3008
2019-10-18 15:35:05 GMT 34.384048 -118.415970 13,000 41 359 3008
2019-10-18 15:35:01 GMT 34.384048 -118.415970 13,050 41 359 2880
2019-10-18 15:34:54 GMT 34.374268 -118.426498 12,700 41 357 2304
2019-10-18 15:34:50 GMT 34.369797 -118.431297 12,575 41 356 2496
2019-10-18 15:34:43 GMT 34.361938 -118.439735 12,200 41 354 3328
2019-10-18 15:34:40 GMT 34.357407 -118.444611 11,850 41 355 3008
2019-10-18 15:34:35 GMT 34.347061 -118.455322 11,750 38 351 1152
2019-10-18 15:34:32 GMT 34.347061 -118.455322 11,625 30 340 1088
2019-10-18 15:34:28 GMT 34.343811 -118.458290 11,700 34 346 1024
2019-10-18 15:34:24 GMT 34.337128 -118.463448 11,575 24 332 704
2019-10-18 15:34:21 GMT 34.333237 -118.465797 11,550 21 327 768
2019-10-18 15:34:11 GMT 34.318634 -118.471352 11,350 8 310 1600
2019-10-18 15:34:08 GMT 34.313919 -118.472191 11,300 6 307 1216
2019-10-18 15:34:03 GMT 34.306915 -118.472809 11,225 0 298 512
2019-10-18 15:33:59 GMT 34.301834 -118.472748 11,175 359 291 640
2019-10-18 15:33:52 GMT 34.292336 -118.472275 11,000 357 281 1792
2019-10-18 15:33:49 GMT 34.289337 -118.472023 10,750 356 278 2368
2019-10-18 15:33:46 GMT 34.284302 -118.471626 10,825 356 277 2560
2019-10-18 15:33:40 GMT 34.277115 -118.470955 10,525 356 274 3648
2019-10-18 15:33:37 GMT 34.273808 -118.470673 10,375 356 274 3776
2019-10-18 15:33:34 GMT 34.269894 -118.470268 10,275 356 274 4032
2019-10-18 15:33:30 GMT 34.264526 -118.469780 9,950 356 275 3456
2019-10-18 15:33:27 GMT 34.261097 -118.469467 9,125 356 275 3008
2019-10-18 15:33:24 GMT 34.256378 -118.468994 9,600 356 275 3008
2019-10-18 15:33:18 GMT 34.249649 -118.468323 9,400 356 274 2944
2019-10-18 15:33:12 GMT 34.234703 -118.466606 8,575 354 267 3008
2019-10-18 15:33:07 GMT 34.234703 -118.466606 8,750 355 269 3008
2019-10-18 15:33:03 GMT 34.230743 -118.466080 8,575 354 267 3136
2019-10-18 15:32:59 GMT 34.225113 -118.465286 8,325 354 266 3136
2019-10-18 15:32:55 GMT 34.220085 -118.464661 8,075 354 265 2880
2019-10-18 15:32:52 GMT 34.217758 -118.464317 8,075 354 265 2880
2019-10-18 15:32:46 GMT 34.208862 -118.462997 7,775 353 264 3136
2019-10-18 15:32:41 GMT 34.197098 -118.461151 7,050 352 265 3520
2019-10-18 15:32:36 GMT 34.196594 -118.461037 7,025 352 265 3392
2019-10-18 15:32:33 GMT 34.191605 -118.460136 6,800 352 265 3072
2019-10-18 15:32:30 GMT 34.191605 -118.460136 6,800 352 265 3072
2019-10-18 15:32:27 GMT 34.185822 -118.459053 6,575 351 261 2880
2019-10-18 15:32:24 GMT 34.182266 -118.458405 6,425 352 260 3456
2019-10-18 15:32:21 GMT 34.179165 -118.457794 6,150 351 259 3264
2019-10-18 15:32:15 GMT 34.168270 -118.455620 5,850 351 257 2560
2019-10-18 15:32:12 GMT 34.168270 -118.455620 5,800 351 255 2688
2019-10-18 15:32:09 GMT 34.165695 -118.455093 5,750 351 255 2752
2019-10-18 15:32:04 GMT 34.159100 -118.453613 5,350 348 251 3136
2019-10-18 15:32:01 GMT 34.155899 -118.452797 4,975 336 254 3584
2019-10-18 15:31:57 GMT 34.153049 -118.451958 4,975 336 254 3584
2019-10-18 15:31:54 GMT 34.149261 -118.450607 5,000 338 253 3520
2019-10-18 15:31:51 GMT 34.145599 -118.448639 4,425 322 260 3520
2019-10-18 15:31:47 GMT 34.141571 -118.445618 4,550 322 260 3456
2019-10-18 15:31:41 GMT 34.136307 -118.439232 4,225 304 265 2752
2019-10-18 15:31:37 GMT 34.132614 -118.431244 3,975 292 267 2496
2019-10-18 15:31:30 GMT 34.130859 -118.423088 3,775 277 266 1472
2019-10-18 15:31:27 GMT 34.130676 -118.416191 3,475 248 255 2368
2019-10-18 15:31:19 GMT 34.131634 -118.409676 3,550 253 256 1920
2019-10-18 15:31:15 GMT 34.133778 -118.402748 3,350 244 254 2752
2019-10-18 15:31:10 GMT 34.136990 -118.396507 3,075 230 254 3008
2019-10-18 15:31:05 GMT 34.145599 -118.386314 2,775 222 230 1280
2019-10-18 15:30:59 GMT 34.146019 -118.385811 2,750 223 240 960
2019-10-18 15:30:54 GMT 34.150536 -118.380943 2,650 222 231 1280
2019-10-18 15:30:48 GMT 34.154537 -118.376656 2,550 222 223 1280
2019-10-18 15:30:42 GMT 34.158684 -118.372307 2,200 221 206 768
2019-10-18 15:30:39 GMT 34.160961 -118.369965 2,325 221 200 960
2019-10-18 15:30:36 GMT 34.163864 -118.366920 2,325 221 200 960
2019-10-18 15:30:31 GMT 34.166748 -118.364006 2,200 221 194 1216
2019-10-18 15:30:28 GMT 34.168625 -118.362045 2,200 222 189 1216
2019-10-18 15:30:20 GMT 34.173843 -118.356949 1,900 210 178 1024
2019-10-18 15:30:17 GMT 34.176418 -118.355202 1,975 202 175 1600
2019-10-18 15:30:10 GMT 34.181770 -118.353371 1,725 177 167 3008
2019-10-18 15:30:05 GMT 34.190048 -118.354477 1,150 167 167 3648
2019-10-18 15:29:59 GMT 34.190460 -118.354591 1,100 168 168 3520
2019-10-18 15:29:48 GMT 34.198204 -118.356567 725 167 163 384
2019-10-18 15:29:37 GMT 34.205421 -118.358574 750 167 120 -128
2019-10-18 15:29:26 GMT 34.210041 -118.359848 0 165 59
2019-10-18 15:29:16 GMT 34.211609 -118.360268 0 168 14
2019-10-18 15:29:05 GMT 34.212090 -118.360176 0 261 10
2019-10-18 15:28:54 GMT 34.211975 -118.359634 0 306 10
2019-10-18 15:28:44 GMT 34.211746 -118.359283 0 309 6
2019-10-18 15:28:32 GMT 34.211620 -118.359116 0 309 0
2019-10-18 15:28:11 GMT 34.211620 -118.359100 0 309 0
2019-10-18 15:28:01 GMT 34.211624 -118.359100 0 309 0
2019-10-18 15:27:50 GMT 34.211552 -118.359016 0 309 4
2019-10-18 15:27:39 GMT 34.211472 -118.358887 0 312 4
2019-10-18 15:27:29 GMT 34.211334 -118.358688 0 309 7
2019-10-18 15:27:18 GMT 34.211082 -118.358330 0 312 6
2019-10-18 15:27:07 GMT 34.210968 -118.358177 0 312 2
2019-10-18 15:26:57 GMT 34.210903 -118.358070 0 320 4
2019-10-18 15:26:45 GMT 34.210716 -118.357925 0 345 5
2019-10-18 15:26:35 GMT 34.210545 -118.357887 0 345 5
2019-10-18 15:26:24 GMT 34.210304 -118.357819 0 348 6
2019-10-18 15:26:14 GMT 34.210041 -118.357758 0 2 7
2019-10-18 15:26:02 GMT 34.209644 -118.357857 0 25 10
2019-10-18 15:25:52 GMT 34.209179 -118.358101 0 14 12
2019-10-18 15:25:41 GMT 34.208572 -118.358070 0 348 15
2019-10-18 15:25:30 GMT 34.207783 -118.357857 0 345 19
2019-10-18 15:25:19 GMT 34.206818 -118.357590 0 348 20
2019-10-18 15:25:08 GMT 34.205956 -118.357361 0 348 13
2019-10-18 15:24:56 GMT 34.205444 -118.357216 0 345 7
2019-10-18 15:24:45 GMT 34.205082 -118.357117 0 348 9
2019-10-18 15:24:33 GMT 34.204536 -118.356956 0 345 12
2019-10-18 15:24:22 GMT 34.203953 -118.356804 0 348 12
2019-10-18 15:24:06 GMT 34.203316 -118.356628 0 345 6
2019-10-18 15:23:58 GMT 34.203106 -118.356567 0 345 7
2019-10-18 15:23:44 GMT 34.202625 -118.356430 0 345 8
2019-10-18 15:23:36 GMT 34.202339 -118.356354 0 345 10
2019-10-18 15:23:25 GMT 34.201790 -118.356201 0 348 13
2019-10-18 15:23:09 GMT 34.201057 -118.356003 0 345 7
2019-10-18 15:23:06 GMT 34.200966 -118.355980 0 345 5
2019-10-18 15:22:58 GMT 34.200863 -118.355949 0 345 1
2019-10-18 15:22:51 GMT 34.200813 -118.355942 0 345 3
2019-10-18 15:22:40 GMT 34.200626 -118.355888 0 348 6
2019-10-18 15:22:27 GMT 34.200039 -118.355728 0 348 8
2019-10-18 15:22:15 GMT 34.199833 -118.355667 0 348 6
2019-10-18 15:22:06 GMT 34.199635 -118.355614 0 345 5
2019-10-18 15:21:53 GMT 34.199299 -118.355515 0 348 8
2019-10-18 15:21:48 GMT 34.199100 -118.355461 0 348 9
2019-10-18 15:21:45 GMT 34.199009 -118.355431 0 348 9
2019-10-18 15:21:31 GMT 34.198589 -118.355324 0 345 6
2019-10-18 15:21:17 GMT 34.198112 -118.355202 0 348 10
2019-10-18 15:21:13 GMT 34.197914 -118.355141 0 345 11
2019-10-18 15:20:54 GMT 34.197292 -118.354469 0 278 9
2019-10-18 15:20:49 GMT 34.197273 -118.354240 0 270 10
2019-10-18 15:20:27 GMT 34.197224 -118.353180 0 278 5
2019-10-18 15:20:19 GMT 34.197193 -118.352966 0 275 6
2019-10-18 15:20:08 GMT 34.197193 -118.352592 0 272 7
2019-10-18 15:19:58 GMT 34.197178 -118.352127 0 272 9
2019-10-18 15:19:45 GMT 34.197170 -118.351509 0 272 8
2019-10-18 15:19:33 GMT 34.197166 -118.351143 0 272 5
2019-10-18 15:19:25 GMT 34.197159 -118.350937 0 270 6
2019-10-18 15:19:20 GMT 34.197159 -118.350609 0 270 6
2019-10-18 15:19:15 GMT 34.197159 -118.350616 0 270 6
2019-10-18 15:19:03 GMT 34.197159 -118.350349 0 270 4
2019-10-18 15:18:54 GMT 34.197159 -118.350136 0 270 4
2019-10-18 15:18:51 GMT 34.197155 -118.349998 0 270 4
2019-10-18 15:18:41 GMT 34.197155 -118.349915 0 270 5
2019-10-18 15:18:27 GMT 34.197166 -118.349632 0 261 0
2019-10-18 15:18:17 GMT 34.197170 -118.349617 0 261 0
2019-10-18 15:17:57 GMT 34.197159 -118.349617 0 261 0
2019-10-18 15:17:48 GMT 34.197166 -118.349617 0 261 0
2019-10-18 15:17:37 GMT 34.197159 -118.349617 0 261 0
2019-10-18 15:17:27 GMT 34.197166 -118.349617 0 261 0
2019-10-18 15:16:52 GMT 34.197159 -118.349617 0 261 0
2019-10-18 15:16:42 GMT 34.197166 -118.349617 0 261 0
2019-10-18 15:16:22 GMT 34.197166 -118.349632 0 261 0
2019-10-18 15:15:57 GMT 34.197159 -118.349617 0 261 0
2019-10-18 15:15:47 GMT 34.197170 -118.349617 0 261 0
2019-10-18 15:15:12 GMT 34.197166 -118.349617 0 261 0
2019-10-18 15:15:04 GMT 34.197166 -118.349632 0 261 0
2019-10-18 15:14:53 GMT 34.197159 -118.349632 0 261 0
2019-10-18 15:14:42 GMT 34.197132 -118.349686 0 250 0
2019-10-18 15:14:37 GMT 34.197063 -118.349716 0 222 2
2019-10-18 15:14:31 GMT 34.197052 -118.349716 0 219 2
2019-10-18 15:14:24 GMT 34.196960 -118.349716 0 196 2
2019-10-18 15:14:20 GMT 34.196972 -118.349716 0 196 2
2019-10-18 15:14:08 GMT 34.196869 -118.349731 0 191 2
2019-10-18 15:13:58 GMT 34.196777 -118.349770 0 196 3
2019-10-18 15:13:33 GMT 34.196674 -118.349831 0 205 0
2019-10-18 15:12:53 GMT 34.196678 -118.349831 0 205 0
2019-10-18 15:12:48 GMT 34.196674 -118.349831 0 205 0
2019-10-18 15:12:23 GMT 34.196678 -118.349831 0 205 0
2019-10-18 15:12:08 GMT 34.196674 -118.349831 0 205 0
2019-10-18 15:11:53 GMT 34.196678 -118.349831 0 205 0
2019-10-18 15:11:08 GMT 34.196671 -118.349831 0 205 0
2019-10-18 15:10:28 GMT 34.196674 -118.349831 0 205 0
2019-10-18 15:10:08 GMT 34.196671 -118.349831 0 205 0
2019-10-18 15:09:38 GMT 34.196674 -118.349831 0 205 0
2019-10-18 15:07:57 GMT 34.196674 -118.349831 0 205 0
2019-10-18 15:07:27 GMT 34.196678 -118.349831 0 205 0
2019-10-18 15:07:17 GMT 34.196674 -118.349831 0 205 0
2019-10-18 15:07:07 GMT 34.196678 -118.349831 0 205 0
2019-10-18 15:06:47 GMT 34.196674 -118.349831 0 205 0
2019-10-18 15:05:22 GMT 34.196671 -118.349831 0 205 0
2019-10-18 15:04:47 GMT 34.196674 -118.349831 0 205 0
2019-10-18 15:04:22 GMT 34.196671 -118.349831 0 205 0
2019-10-18 15:04:17 GMT 34.196674 -118.349831 0 205 0
2019-10-18 15:04:02 GMT 34.196671 -118.349831 0 205 0
2019-10-18 15:03:27 GMT 34.196674 -118.349838 0 205 0

Making use of Plane Finder data

You are free to use the raw flight data, aircraft information and images provided in this report for your own purposes provided the data is correctly attributed to Plane Finder. We ask that you please credit Plane Finder and link to planefinder.net in close proximity to the content.

Optionally one of the following logos (no smaller then 150x24px) can be used and must link to planefinder.net

Embedding the Plane Finder map

You are welcome to embed the Plane Finder playback map on your website to offer visitors a more interactive experience. We suggest using the following HTML code:

<iframe src="//planefinder.net/data/report/AA2599-N891NN-7700-squawk-2019-10-18/map" width="800" height="600" seamless="seamless"></iframe>

Where our data comes from

Plane Finder has a global network of data feeds and antenna radars that receive data broadcast directly from aircraft. The primary technologies used are ADS-B and MLAT. We also show feeds from the FAA and a FLARM glider feed.

Click here to find out more about the Plane Finder network.

How we collect our data